<?xml version='1.0' encoding='UTF-8'?><gpx version="1.1" creator="JPX - https://github.com/jenetics/jpx" xmlns="http://www.topografix.com/GPX/1/1"><trk><trkseg><trkpt lat="43.65082981423646" lon="11.836979808136713"><ele>326.0</ele><time>2026-04-25T13:10:22.02Z</time></trkpt><trkpt lat="43.650803580996794" lon="11.8370720070941"><ele>326.0</ele><time>2026-04-25T13:10:32.002Z</time></trkpt><trkpt lat="43.65084535711696" lon="11.837162110456584"><ele>326.0</ele><time>2026-04-25T13:10:37.001Z</time></trkpt><trkpt lat="43.650833955443304" lon="11.837070609020362"><ele>326.0</ele><time>2026-04-25T13:10:45.001Z</time></trkpt><trkpt lat="43.65091512889507" lon="11.83708347334124"><ele>326.0</ele><time>2026-04-25T13:10:51.001Z</time></trkpt><trkpt lat="43.65114058232078" lon="11.837342894107893"><ele>326.0</ele><time>2026-04-25T13:10:58Z</time></trkpt><trkpt lat="43.651019329319354" lon="11.83722840875664"><ele>326.0</ele><time>2026-04-25T13:11:05Z</time></trkpt><trkpt lat="43.65086197166172" lon="11.83704966491395"><ele>326.0</ele><time>2026-04-25T13:11:10Z</time></trkpt><trkpt lat="43.650977712823064" lon="11.837071612057727"><ele>326.0</ele><time>2026-04-25T13:12:13Z</time></trkpt><trkpt lat="43.65112402172711" lon="11.837104349478436"><ele>326.0</ele><time>2026-04-25T13:12:15Z</time></trkpt><trkpt lat="43.65120258183248" lon="11.83721026318962"><ele>326.0</ele><time>2026-04-25T13:12:17Z</time></trkpt><trkpt lat="43.651196996465366" lon="11.837310642130035"><ele>326.0</ele><time>2026-04-25T13:12:18Z</time></trkpt><trkpt lat="43.65116917197719" lon="11.83740625586353"><ele>326.0</ele><time>2026-04-25T13:12:19Z</time></trkpt><trkpt lat="43.6511370978245" lon="11.837511057487847"><ele>326.0</ele><time>2026-04-25T13:12:20Z</time></trkpt><trkpt lat="43.65110324330104" lon="11.837606740714325"><ele>326.0</ele><time>2026-04-25T13:12:21Z</time></trkpt><trkpt lat="43.65105808466704" lon="11.837675935032722"><ele>326.0</ele><time>2026-04-25T13:12:22Z</time></trkpt><trkpt lat="43.65095135206188" lon="11.837706943024816"><ele>326.0</ele><time>2026-04-25T13:12:24Z</time></trkpt><trkpt lat="43.65088684766442" lon="11.83766604721324"><ele>326.0</ele><time>2026-04-25T13:12:25Z</time></trkpt><trkpt lat="43.65080588792389" lon="11.83765567385025"><ele>326.0</ele><time>2026-04-25T13:12:26Z</time></trkpt><trkpt lat="43.65073199700774" lon="11.837645482001182"><ele>326.0</ele><time>2026-04-25T13:12:27Z</time></trkpt><trkpt lat="43.65066727699215" lon="11.837636555098936"><ele>326.0</ele><time>2026-04-25T13:12:28Z</time></trkpt><trkpt lat="43.65053937429741" lon="11.837624908397935"><ele>326.0</ele><time>2026-04-25T13:12:30Z</time></trkpt><trkpt lat="43.65045674952763" lon="11.83762928592712"><ele>326.0</ele><time>2026-04-25T13:12:31Z</time></trkpt><trkpt lat="43.650402021545" lon="11.837685481248705"><ele>326.0</ele><time>2026-04-25T13:12:32Z</time></trkpt><trkpt lat="43.6503461103122" lon="11.837768865530197"><ele>326.0</ele><time>2026-04-25T13:12:34Z</time></trkpt><trkpt lat="43.65035752979666" lon="11.837928795914353"><ele>327.8</ele><time>2026-04-25T13:12:36Z</time></trkpt><trkpt lat="43.65039124691615" lon="11.838066524121663"><ele>329.6</ele><time>2026-04-25T13:12:37Z</time></trkpt><trkpt lat="43.65042111882071" lon="11.838255511656696"><ele>331.4</ele><time>2026-04-25T13:12:38Z</time></trkpt><trkpt lat="43.65041580668391" lon="11.838394810787317"><ele>333.2</ele><time>2026-04-25T13:12:39Z</time></trkpt><trkpt lat="43.650438214316985" lon="11.838527577307993"><ele>335.0</ele><time>2026-04-25T13:12:40Z</time></trkpt><trkpt lat="43.65043892323883" lon="11.8386734749752"><ele>336.6</ele><time>2026-04-25T13:12:41Z</time></trkpt><trkpt lat="43.65044733682138" lon="11.838807462260524"><ele>338.2</ele><time>2026-04-25T13:12:42Z</time></trkpt><trkpt lat="43.65046302489311" lon="11.838952024892373"><ele>339.79999999999995</ele><time>2026-04-25T13:12:43Z</time></trkpt><trkpt lat="43.65049196878266" lon="11.839079099575088"><ele>341.4</ele><time>2026-04-25T13:12:44Z</time></trkpt><trkpt lat="43.65054693893761" lon="11.839180883478422"><ele>343.0</ele><time>2026-04-25T13:12:45Z</time></trkpt><trkpt lat="43.65063298254449" lon="11.839250983645185"><ele>346.0</ele><time>2026-04-25T13:12:46Z</time></trkpt><trkpt lat="43.65074130499283" lon="11.839301233967932"><ele>349.0</ele><time>2026-04-25T13:12:47Z</time></trkpt><trkpt lat="43.65087107381339" lon="11.83933354864325"><ele>352.0</ele><time>2026-04-25T13:12:48Z</time></trkpt><trkpt lat="43.65099673243501" lon="11.839391959490312"><ele>355.0</ele><time>2026-04-25T13:12:49Z</time></trkpt><trkpt lat="43.651103957808104" lon="11.839445227476611"><ele>355.0</ele><time>2026-04-25T13:12:50Z</time></trkpt><trkpt lat="43.65119027077907" lon="11.839509235198504"><ele>355.0</ele><time>2026-04-25T13:12:51Z</time></trkpt><trkpt lat="43.65123413954712" lon="11.83961711307901"><ele>355.0</ele><time>2026-04-25T13:12:52Z</time></trkpt><trkpt lat="43.65125670852985" lon="11.839722681324764"><ele>355.0</ele><time>2026-04-25T13:12:53Z</time></trkpt><trkpt lat="43.65119775612888" lon="11.83983588386176"><ele>355.0</ele><time>2026-04-25T13:12:54Z</time></trkpt><trkpt lat="43.65110540109476" lon="11.839920322474486"><ele>355.0</ele><time>2026-04-25T13:12:55Z</time></trkpt><trkpt lat="43.650989673950676" lon="11.839933513621087"><ele>355.0</ele><time>2026-04-25T13:12:56Z</time></trkpt><trkpt lat="43.65086774159834" lon="11.839840329652985"><ele>355.0</ele><time>2026-04-25T13:12:57Z</time></trkpt><trkpt lat="43.65074117771902" lon="11.839813597253437"><ele>355.0</ele><time>2026-04-25T13:12:58Z</time></trkpt><trkpt lat="43.650629385000684" lon="11.839803887086495"><ele>355.0</ele><time>2026-04-25T13:12:59Z</time></trkpt><trkpt lat="43.650517046499786" lon="11.839865242575696"><ele>355.0</ele><time>2026-04-25T13:13:00Z</time></trkpt><trkpt lat="43.650409393461544" lon="11.839971410628452"><ele>355.0</ele><time>2026-04-25T13:13:01Z</time></trkpt><trkpt lat="43.65029582191933" lon="11.840074363397074"><ele>355.0</ele><time>2026-04-25T13:13:02Z</time></trkpt><trkpt lat="43.65017726942602" lon="11.840157944681149"><ele>359.0</ele><time>2026-04-25T13:13:03Z</time></trkpt><trkpt lat="43.650053215195776" lon="11.840244655716809"><ele>363.0</ele><time>2026-04-25T13:13:04Z</time></trkpt><trkpt lat="43.64992401830883" lon="11.840327730459823"><ele>367.0</ele><time>2026-04-25T13:13:05Z</time></trkpt><trkpt lat="43.64978741961929" lon="11.84042564696672"><ele>371.0</ele><time>2026-04-25T13:13:06Z</time></trkpt><trkpt lat="43.64963112393338" lon="11.840547939207752"><ele>371.0</ele><time>2026-04-25T13:13:07Z</time></trkpt><trkpt lat="43.64948355333499" lon="11.84066014623311"><ele>371.0</ele><time>2026-04-25T13:13:08Z</time></trkpt><trkpt lat="43.64933842499806" lon="11.840731470568667"><ele>371.0</ele><time>2026-04-25T13:13:09Z</time></trkpt><trkpt lat="43.64921915090423" lon="11.840828010298553"><ele>371.0</ele><time>2026-04-25T13:13:10Z</time></trkpt><trkpt lat="43.649109234962296" lon="11.840895875993176"><ele>371.0</ele><time>2026-04-25T13:13:11Z</time></trkpt><trkpt lat="43.64902100451126" lon="11.840947319671734"><ele>371.0</ele><time>2026-04-25T13:13:12Z</time></trkpt><trkpt lat="43.64893931145167" lon="11.840971452506732"><ele>371.0</ele><time>2026-04-25T13:13:13Z</time></trkpt><trkpt lat="43.648871321163334" lon="11.841007772967629"><ele>371.0</ele><time>2026-04-25T13:13:14Z</time></trkpt><trkpt lat="43.64884222546823" lon="11.841195375965075"><ele>373.0</ele><time>2026-04-25T13:13:15Z</time></trkpt><trkpt lat="43.64878745646271" lon="11.841324985074563"><ele>375.0</ele><time>2026-04-25T13:13:16Z</time></trkpt><trkpt lat="43.64872302186738" lon="11.841480497753452"><ele>377.0</ele><time>2026-04-25T13:13:17Z</time></trkpt><trkpt lat="43.648695608665435" lon="11.841665574932527"><ele>379.0</ele><time>2026-04-25T13:13:18Z</time></trkpt><trkpt lat="43.64865230805152" lon="11.841810404819324"><ele>382.6</ele><time>2026-04-25T13:13:19Z</time></trkpt><trkpt lat="43.64860870194633" lon="11.841938200705421"><ele>386.2</ele><time>2026-04-25T13:13:20Z</time></trkpt><trkpt lat="43.648574650965436" lon="11.84205343799848"><ele>389.8</ele><time>2026-04-25T13:13:21Z</time></trkpt><trkpt lat="43.64850753000418" lon="11.842154280646358"><ele>393.40000000000003</ele><time>2026-04-25T13:13:22Z</time></trkpt><trkpt lat="43.64845133618805" lon="11.842214948681615"><ele>397.0</ele><time>2026-04-25T13:13:23Z</time></trkpt><trkpt lat="43.648352827606715" lon="11.842338315283492"><ele>397.0</ele><time>2026-04-25T13:13:25Z</time></trkpt><trkpt lat="43.64841122527745" lon="11.842472667405907"><ele>397.0</ele><time>2026-04-25T13:13:27Z</time></trkpt><trkpt lat="43.64817788612169" lon="11.842532818486378"><ele>397.0</ele><time>2026-04-25T13:13:29Z</time></trkpt><trkpt lat="43.64814339719221" lon="11.842652003625103"><ele>397.0</ele><time>2026-04-25T13:13:30Z</time></trkpt><trkpt lat="43.64805564298777" lon="11.842771886598657"><ele>398.33333333333337</ele><time>2026-04-25T13:13:32Z</time></trkpt><trkpt lat="43.64800379634829" lon="11.84286265215823"><ele>399.6666666666667</ele><time>2026-04-25T13:13:33Z</time></trkpt><trkpt lat="43.64794400245909" lon="11.842921085686617"><ele>401.0</ele><time>2026-04-25T13:13:34Z</time></trkpt><trkpt lat="43.64789028432754" lon="11.843010165431505"><ele>402.33333333333337</ele><time>2026-04-25T13:13:35Z</time></trkpt><trkpt lat="43.647852721670084" lon="11.843091170377882"><ele>403.6666666666667</ele><time>2026-04-25T13:13:36Z</time></trkpt><trkpt lat="43.64782207790919" lon="11.843187373942143"><ele>405.0</ele><time>2026-04-25T13:13:37Z</time></trkpt><trkpt lat="43.64778808614788" lon="11.843266011500573"><ele>406.3333333333333</ele><time>2026-04-25T13:13:38Z</time></trkpt><trkpt lat="43.64774198485859" lon="11.843374414364183"><ele>407.66666666666663</ele><time>2026-04-25T13:13:39Z</time></trkpt><trkpt lat="43.647699890683896" lon="11.843486370889499"><ele>409.0</ele><time>2026-04-25T13:13:40Z</time></trkpt><trkpt lat="43.64766361051896" lon="11.843574972576453"><ele>410.3333333333333</ele><time>2026-04-25T13:13:41Z</time></trkpt><trkpt lat="43.647598731620164" lon="11.84361131584396"><ele>411.66666666666663</ele><time>2026-04-25T13:13:43Z</time></trkpt><trkpt lat="43.64749932164404" lon="11.84361173870557"><ele>413.0</ele><time>2026-04-25T13:13:44Z</time></trkpt><trkpt lat="43.64735427553632" lon="11.84361274651738"><ele>415.5</ele><time>2026-04-25T13:13:45Z</time></trkpt><trkpt lat="43.64717226090133" lon="11.843591942483508"><ele>418.0</ele><time>2026-04-25T13:13:46Z</time></trkpt><trkpt lat="43.647055762117084" lon="11.84358399942251"><ele>420.5</ele><time>2026-04-25T13:13:47Z</time></trkpt><trkpt lat="43.64697835216678" lon="11.843582639195315"><ele>423.0</ele><time>2026-04-25T13:13:48Z</time></trkpt><trkpt lat="43.6468954560433" lon="11.84361587207329"><ele>424.1666666666667</ele><time>2026-04-25T13:13:49Z</time></trkpt><trkpt lat="43.6468159207816" lon="11.843658059457455"><ele>425.33333333333337</ele><time>2026-04-25T13:13:50Z</time></trkpt><trkpt lat="43.646739131657434" lon="11.84372514533395"><ele>426.5</ele><time>2026-04-25T13:13:51Z</time></trkpt><trkpt lat="43.646669068301996" lon="11.843797168510662"><ele>427.6666666666667</ele><time>2026-04-25T13:13:52Z</time></trkpt><trkpt lat="43.64659608877637" lon="11.843864642922968"><ele>428.83333333333337</ele><time>2026-04-25T13:13:53Z</time></trkpt><trkpt lat="43.64651482976526" lon="11.843936942263307"><ele>430.0</ele><time>2026-04-25T13:13:54Z</time></trkpt><trkpt lat="43.646438513889294" lon="11.844001956900472"><ele>430.00000000000006</ele><time>2026-04-25T13:13:55Z</time></trkpt><trkpt lat="43.64635789537684" lon="11.844064526775547"><ele>430.0</ele><time>2026-04-25T13:13:56Z</time></trkpt><trkpt lat="43.64628183096822" lon="11.844118234241279"><ele>430.0</ele><time>2026-04-25T13:13:57Z</time></trkpt><trkpt lat="43.64620796174877" lon="11.84416619658865"><ele>430.0</ele><time>2026-04-25T13:13:58Z</time></trkpt><trkpt lat="43.646140207858465" lon="11.84421874523842"><ele>430.00000000000006</ele><time>2026-04-25T13:13:59Z</time></trkpt><trkpt lat="43.6460730677985" lon="11.844284998975738"><ele>430.0</ele><time>2026-04-25T13:14:00Z</time></trkpt><trkpt lat="43.64601274520541" lon="11.844346651381489"><ele>431.1666666666667</ele><time>2026-04-25T13:14:01Z</time></trkpt><trkpt lat="43.645955465063665" lon="11.844402859737942"><ele>432.33333333333337</ele><time>2026-04-25T13:14:02Z</time></trkpt><trkpt lat="43.64589788045923" lon="11.844449861391087"><ele>433.5</ele><time>2026-04-25T13:14:03Z</time></trkpt><trkpt lat="43.64583370591537" lon="11.844484341587508"><ele>434.66666666666663</ele><time>2026-04-25T13:14:04Z</time></trkpt><trkpt lat="43.64580593584971" lon="11.844644999925187"><ele>435.8333333333333</ele><time>2026-04-25T13:14:06Z</time></trkpt><trkpt lat="43.64584765029154" lon="11.844754337726934"><ele>437.0</ele><time>2026-04-25T13:14:07Z</time></trkpt><trkpt lat="43.645877706551204" lon="11.844866994176348"><ele>437.0</ele><time>2026-04-25T13:14:08Z</time></trkpt><trkpt lat="43.64589439202253" lon="11.844999062430592"><ele>437.0</ele><time>2026-04-25T13:14:09Z</time></trkpt><trkpt lat="43.64591447758556" lon="11.845143648453252"><ele>437.0</ele><time>2026-04-25T13:14:10Z</time></trkpt><trkpt lat="43.64593705570692" lon="11.845324144760532"><ele>437.0</ele><time>2026-04-25T13:14:11Z</time></trkpt><trkpt lat="43.64596976748191" lon="11.845545892065084"><ele>439.3333333333333</ele><time>2026-04-25T13:14:12Z</time></trkpt><trkpt lat="43.64600772252181" lon="11.845795506834012"><ele>441.66666666666663</ele><time>2026-04-25T13:14:13Z</time></trkpt><trkpt lat="43.646052314803335" lon="11.846087458125139"><ele>444.0</ele><time>2026-04-25T13:14:14Z</time></trkpt><trkpt lat="43.646079714363964" lon="11.846322278768985"><ele>445.25</ele><time>2026-04-25T13:14:15Z</time></trkpt><trkpt lat="43.64607559913399" lon="11.846424648786767"><ele>446.5</ele><time>2026-04-25T13:14:16Z</time></trkpt><trkpt lat="43.645969859880054" lon="11.846547267727095"><ele>447.75</ele><time>2026-04-25T13:14:18Z</time></trkpt><trkpt lat="43.64583999481438" lon="11.846619148039274"><ele>449.0</ele><time>2026-04-25T13:14:19Z</time></trkpt><trkpt lat="43.645690846867" lon="11.846751348676525"><ele>448.66666666666663</ele><time>2026-04-25T13:14:20Z</time></trkpt><trkpt lat="43.64557517289984" lon="11.84692551907211"><ele>448.33333333333337</ele><time>2026-04-25T13:14:21Z</time></trkpt><trkpt lat="43.64547087233433" lon="11.847140488657658"><ele>448.0</ele><time>2026-04-25T13:14:22Z</time></trkpt><trkpt lat="43.64540104921455" lon="11.8473064819504"><ele>448.0</ele><time>2026-04-25T13:14:23Z</time></trkpt><trkpt lat="43.64536527024991" lon="11.847419282195137"><ele>448.0</ele><time>2026-04-25T13:14:24Z</time></trkpt><trkpt lat="43.64522819742483" lon="11.847534196473381"><ele>448.0</ele><time>2026-04-25T13:14:26Z</time></trkpt><trkpt lat="43.645130930976286" lon="11.847633654077267"><ele>448.0</ele><time>2026-04-25T13:14:27Z</time></trkpt><trkpt lat="43.64505295885334" lon="11.847741467483166"><ele>449.59999999999997</ele><time>2026-04-25T13:14:28Z</time></trkpt><trkpt lat="43.6449839586885" lon="11.8477752905118"><ele>451.19999999999993</ele><time>2026-04-25T13:14:29Z</time></trkpt><trkpt lat="43.64492166357203" lon="11.847864784419986"><ele>452.8</ele><time>2026-04-25T13:14:30Z</time></trkpt><trkpt lat="43.64482321957807" lon="11.848002926706702"><ele>454.4</ele><time>2026-04-25T13:14:31Z</time></trkpt><trkpt lat="43.64473002753706" lon="11.84810230379572"><ele>456.0</ele><time>2026-04-25T13:14:32Z</time></trkpt><trkpt lat="43.6446466765223" lon="11.848154174345199"><ele>456.0</ele><time>2026-04-25T13:14:33Z</time></trkpt><trkpt lat="43.64454731234396" lon="11.848206785490136"><ele>456.0</ele><time>2026-04-25T13:14:34Z</time></trkpt><trkpt lat="43.64445230621722" lon="11.848318241376928"><ele>456.0</ele><time>2026-04-25T13:14:35Z</time></trkpt><trkpt lat="43.64432721547684" lon="11.84843675823565"><ele>456.0</ele><time>2026-04-25T13:14:36Z</time></trkpt><trkpt lat="43.64420154321974" lon="11.848541669942746"><ele>457.8</ele><time>2026-04-25T13:14:37Z</time></trkpt><trkpt lat="43.644094598095705" lon="11.848619723364807"><ele>459.6</ele><time>2026-04-25T13:14:38Z</time></trkpt><trkpt lat="43.644018275113744" lon="11.848673197422569"><ele>461.4</ele><time>2026-04-25T13:14:39Z</time></trkpt><trkpt lat="43.64394441163356" lon="11.848763817723382"><ele>463.2</ele><time>2026-04-25T13:14:40Z</time></trkpt><trkpt lat="43.6438507596141" lon="11.848882765262688"><ele>465.0</ele><time>2026-04-25T13:14:41Z</time></trkpt><trkpt lat="43.643757371384346" lon="11.848945776050023"><ele>465.0</ele><time>2026-04-25T13:14:42Z</time></trkpt><trkpt lat="43.64363256027818" lon="11.849008682346884"><ele>465.0</ele><time>2026-04-25T13:14:43Z</time></trkpt><trkpt lat="43.64352997061574" lon="11.849018428154585"><ele>465.0</ele><time>2026-04-25T13:14:44Z</time></trkpt><trkpt lat="43.64345685895442" lon="11.849092232791595"><ele>465.0</ele><time>2026-04-25T13:14:47Z</time></trkpt><trkpt lat="43.6433338725172" lon="11.849218862084262"><ele>466.0</ele><time>2026-04-25T13:14:49Z</time></trkpt><trkpt lat="43.64322972723695" lon="11.849360242096761"><ele>467.0</ele><time>2026-04-25T13:14:50Z</time></trkpt><trkpt lat="43.64312819084652" lon="11.849493218296507"><ele>468.0</ele><time>2026-04-25T13:14:51Z</time></trkpt><trkpt lat="43.64304942619002" lon="11.849562077592928"><ele>469.0</ele><time>2026-04-25T13:14:52Z</time></trkpt><trkpt lat="43.64292772639252" lon="11.849649014163706"><ele>469.00000000000006</ele><time>2026-04-25T13:14:54Z</time></trkpt><trkpt lat="43.64287977778346" lon="11.849707518576599"><ele>469.0</ele><time>2026-04-25T13:14:55Z</time></trkpt><trkpt lat="43.64279243294429" lon="11.849766432168423"><ele>469.0</ele><time>2026-04-25T13:14:57Z</time></trkpt><trkpt lat="43.64271910055152" lon="11.849803842885654"><ele>469.0</ele><time>2026-04-25T13:14:58Z</time></trkpt><trkpt lat="43.64262899059298" lon="11.849866880681892"><ele>469.00000000000006</ele><time>2026-04-25T13:14:59Z</time></trkpt><trkpt lat="43.642564034782325" lon="11.849945194935492"><ele>469.0</ele><time>2026-04-25T13:15:00Z</time></trkpt><trkpt lat="43.64250180689987" lon="11.850003748524731"><ele>471.2</ele><time>2026-04-25T13:15:01Z</time></trkpt><trkpt lat="43.64247273928608" lon="11.850116795352038"><ele>473.4</ele><time>2026-04-25T13:15:03Z</time></trkpt><trkpt lat="43.642393763298486" lon="11.850200362843248"><ele>475.6</ele><time>2026-04-25T13:15:05Z</time></trkpt><trkpt lat="43.6423350903762" lon="11.850234555568647"><ele>477.8</ele><time>2026-04-25T13:15:06Z</time></trkpt><trkpt lat="43.64223259232798" lon="11.850213354233128"><ele>480.0</ele><time>2026-04-25T13:15:08Z</time></trkpt><trkpt lat="43.642124962496204" lon="11.85042662191974"><ele>480.4</ele><time>2026-04-25T13:15:09Z</time></trkpt><trkpt lat="43.64205052049162" lon="11.850561891771287"><ele>480.8</ele><time>2026-04-25T13:15:10Z</time></trkpt><trkpt lat="43.64204085061878" lon="11.850653939657736"><ele>481.20000000000005</ele><time>2026-04-25T13:15:11Z</time></trkpt><trkpt lat="43.641991457861295" lon="11.85074102314661"><ele>481.6</ele><time>2026-04-25T13:15:17Z</time></trkpt><trkpt lat="43.642024726902775" lon="11.85090397812358"><ele>482.0</ele><time>2026-04-25T13:15:19Z</time></trkpt><trkpt lat="43.642027778821586" lon="11.850993103290541"><ele>482.6</ele><time>2026-04-25T13:15:21Z</time></trkpt><trkpt lat="43.642074038646975" lon="11.851065058340135"><ele>483.20000000000005</ele><time>2026-04-25T13:15:24Z</time></trkpt><trkpt lat="43.642147266587244" lon="11.851257987722365"><ele>483.8</ele><time>2026-04-25T13:15:26Z</time></trkpt><trkpt lat="43.64216571411081" lon="11.851389616321502"><ele>484.4</ele><time>2026-04-25T13:15:27Z</time></trkpt><trkpt lat="43.6421812750913" lon="11.851517450848846"><ele>485.0</ele><time>2026-04-25T13:15:28Z</time></trkpt><trkpt lat="43.64219300488275" lon="11.85164174406286"><ele>486.5</ele><time>2026-04-25T13:15:29Z</time></trkpt><trkpt lat="43.6422215142915" lon="11.851895039788843"><ele>488.0</ele><time>2026-04-25T13:15:30Z</time></trkpt><trkpt lat="43.64222193056411" lon="11.852054820654207"><ele>489.5</ele><time>2026-04-25T13:15:31Z</time></trkpt><trkpt lat="43.64218763920917" lon="11.852147158344618"><ele>491.0</ele><time>2026-04-25T13:15:32Z</time></trkpt><trkpt lat="43.64225089837436" lon="11.85227766995443"><ele>491.0</ele><time>2026-04-25T13:15:34Z</time></trkpt><trkpt lat="43.642285287331525" lon="11.852367467469175"><ele>491.0</ele><time>2026-04-25T13:15:35Z</time></trkpt><trkpt lat="43.64228101092116" lon="11.852470997903245"><ele>491.0</ele><time>2026-04-25T13:15:36Z</time></trkpt><trkpt lat="43.64224164752583" lon="11.85257219411545"><ele>491.0</ele><time>2026-04-25T13:15:37Z</time></trkpt><trkpt lat="43.6422459054801" lon="11.852715887647088"><ele>491.0</ele><time>2026-04-25T13:15:39Z</time></trkpt><trkpt lat="43.64222828847488" lon="11.85287202484515"><ele>490.75</ele><time>2026-04-25T13:15:40Z</time></trkpt><trkpt lat="43.64221205896871" lon="11.853083018794363"><ele>490.5</ele><time>2026-04-25T13:15:41Z</time></trkpt><trkpt lat="43.6421772695552" lon="11.85325356562711"><ele>490.25</ele><time>2026-04-25T13:15:42Z</time></trkpt><trkpt lat="43.64212809180009" lon="11.853403072330904"><ele>490.0</ele><time>2026-04-25T13:15:43Z</time></trkpt><trkpt lat="43.642079248294564" lon="11.853606049849041"><ele>490.00000000000006</ele><time>2026-04-25T13:15:44Z</time></trkpt><trkpt lat="43.6420331388394" lon="11.85375452446033"><ele>490.0</ele><time>2026-04-25T13:15:45Z</time></trkpt><trkpt lat="43.64203444928296" lon="11.853847273811127"><ele>490.0</ele><time>2026-04-25T13:15:46Z</time></trkpt><trkpt lat="43.64204009274922" lon="11.853974862366268"><ele>490.0</ele><time>2026-04-25T13:15:49Z</time></trkpt><trkpt lat="43.6420206960286" lon="11.85407735319384"><ele>490.00000000000006</ele><time>2026-04-25T13:15:54Z</time></trkpt><trkpt lat="43.641981837539866" lon="11.854165961863572"><ele>490.0</ele><time>2026-04-25T13:15:58Z</time></trkpt><trkpt lat="43.64196152927701" lon="11.854446881451594"><ele>489.6666666666667</ele><time>2026-04-25T13:15:59Z</time></trkpt><trkpt lat="43.64194545157163" lon="11.854722326816407"><ele>489.33333333333337</ele><time>2026-04-25T13:16:00Z</time></trkpt><trkpt lat="43.64190033555553" lon="11.854975147759282"><ele>489.0</ele><time>2026-04-25T13:16:01Z</time></trkpt><trkpt lat="43.64185971300377" lon="11.855213172908469"><ele>487.0</ele><time>2026-04-25T13:16:02Z</time></trkpt><trkpt lat="43.64183896837588" lon="11.85538701205272"><ele>485.0</ele><time>2026-04-25T13:16:03Z</time></trkpt><trkpt lat="43.64182263134807" lon="11.855532706164153"><ele>483.0</ele><time>2026-04-25T13:16:04Z</time></trkpt><trkpt lat="43.641849013172056" lon="11.855692564214884"><ele>481.0</ele><time>2026-04-25T13:16:05Z</time></trkpt><trkpt lat="43.64184520960586" lon="11.855887974749127"><ele>479.33333333333337</ele><time>2026-04-25T13:16:06Z</time></trkpt><trkpt lat="43.64180912630281" lon="11.856133992126464"><ele>477.66666666666663</ele><time>2026-04-25T13:16:07Z</time></trkpt><trkpt lat="43.641782443615654" lon="11.856323374057359"><ele>476.0</ele><time>2026-04-25T13:16:08Z</time></trkpt><trkpt lat="43.64176365046132" lon="11.85652749851559"><ele>476.0</ele><time>2026-04-25T13:16:09Z</time></trkpt><trkpt lat="43.64173565066761" lon="11.85670748626032"><ele>476.0</ele><time>2026-04-25T13:16:10Z</time></trkpt><trkpt lat="43.64166659341909" lon="11.856818194930144"><ele>476.0</ele><time>2026-04-25T13:16:11Z</time></trkpt><trkpt lat="43.64161684675971" lon="11.856964111094902"><ele>476.0</ele><time>2026-04-25T13:16:12Z</time></trkpt><trkpt lat="43.641584380610794" lon="11.85717421604024"><ele>475.25</ele><time>2026-04-25T13:16:13Z</time></trkpt><trkpt lat="43.64157113451283" lon="11.857385716644968"><ele>474.5</ele><time>2026-04-25T13:16:14Z</time></trkpt><trkpt lat="43.64159727650675" lon="11.857589771165966"><ele>473.75</ele><time>2026-04-25T13:16:15Z</time></trkpt><trkpt lat="43.64162410500002" lon="11.857779062243154"><ele>473.0</ele><time>2026-04-25T13:16:16Z</time></trkpt><trkpt lat="43.64162582872635" lon="11.857899109023311"><ele>472.59999999999997</ele><time>2026-04-25T13:16:17Z</time></trkpt><trkpt lat="43.641594667303636" lon="11.858015280659144"><ele>472.19999999999993</ele><time>2026-04-25T13:16:23Z</time></trkpt><trkpt lat="43.64160368684044" lon="11.858152055361737"><ele>471.8</ele><time>2026-04-25T13:16:25Z</time></trkpt><trkpt lat="43.6416104982035" lon="11.858309672411682"><ele>471.4</ele><time>2026-04-25T13:16:26Z</time></trkpt><trkpt lat="43.641616511159164" lon="11.85846281624746"><ele>471.0</ele><time>2026-04-25T13:16:27Z</time></trkpt><trkpt lat="43.64162462852998" lon="11.85856164897996"><ele>472.5</ele><time>2026-04-25T13:16:28Z</time></trkpt><trkpt lat="43.641629628688484" lon="11.858725022099463"><ele>474.0</ele><time>2026-04-25T13:16:29Z</time></trkpt><trkpt lat="43.64164965204532" lon="11.858938751611918"><ele>475.5</ele><time>2026-04-25T13:16:30Z</time></trkpt><trkpt lat="43.641661873521485" lon="11.859139475367506"><ele>477.0</ele><time>2026-04-25T13:16:31Z</time></trkpt><trkpt lat="43.641693291338534" lon="11.859280093621292"><ele>478.1666666666667</ele><time>2026-04-25T13:16:32Z</time></trkpt><trkpt lat="43.64171573896431" lon="11.859395283296436"><ele>479.33333333333337</ele><time>2026-04-25T13:16:33Z</time></trkpt><trkpt lat="43.6417089139971" lon="11.859497331689107"><ele>480.5</ele><time>2026-04-25T13:16:34Z</time></trkpt><trkpt lat="43.641704558649856" lon="11.859610593755907"><ele>481.6666666666667</ele><time>2026-04-25T13:16:35Z</time></trkpt><trkpt lat="43.64171554173225" lon="11.859744927037442"><ele>482.83333333333337</ele><time>2026-04-25T13:16:36Z</time></trkpt><trkpt lat="43.64172642638176" lon="11.859892642258005"><ele>484.0</ele><time>2026-04-25T13:16:37Z</time></trkpt><trkpt lat="43.64171189922804" lon="11.860011398878255"><ele>484.2</ele><time>2026-04-25T13:16:38Z</time></trkpt><trkpt lat="43.64167364936858" lon="11.86011881720098"><ele>484.4</ele><time>2026-04-25T13:16:39Z</time></trkpt><trkpt lat="43.641620474905054" lon="11.860279463558975"><ele>484.6</ele><time>2026-04-25T13:16:40Z</time></trkpt><trkpt lat="43.64159956874687" lon="11.860439362247305"><ele>484.8</ele><time>2026-04-25T13:16:41Z</time></trkpt><trkpt lat="43.64161280823672" lon="11.860544381213677"><ele>485.0</ele><time>2026-04-25T13:16:42Z</time></trkpt><trkpt lat="43.64166376231738" lon="11.86070630000543"><ele>485.0</ele><time>2026-04-25T13:16:43Z</time></trkpt><trkpt lat="43.6417299148255" lon="11.860917190464741"><ele>485.0</ele><time>2026-04-25T13:16:44Z</time></trkpt><trkpt lat="43.64178539055049" lon="11.861124876364098"><ele>485.0</ele><time>2026-04-25T13:16:45Z</time></trkpt><trkpt lat="43.6418186808145" lon="11.86129130200806"><ele>485.2</ele><time>2026-04-25T13:16:46Z</time></trkpt><trkpt lat="43.64184461547306" lon="11.861452272829155"><ele>485.4</ele><time>2026-04-25T13:16:47Z</time></trkpt><trkpt lat="43.64186559893596" lon="11.861575233450159"><ele>485.6</ele><time>2026-04-25T13:16:48Z</time></trkpt><trkpt lat="43.641897168173344" lon="11.861726732755079"><ele>485.8</ele><time>2026-04-25T13:16:49Z</time></trkpt><trkpt lat="43.641923669645884" lon="11.861894923247172"><ele>486.0</ele><time>2026-04-25T13:16:50Z</time></trkpt><trkpt lat="43.64195172095097" lon="11.862066420131626"><ele>488.4</ele><time>2026-04-25T13:16:51Z</time></trkpt><trkpt lat="43.64196987316478" lon="11.862206740382979"><ele>490.8</ele><time>2026-04-25T13:16:52Z</time></trkpt><trkpt lat="43.6419862269826" lon="11.862327621259844"><ele>493.19999999999993</ele><time>2026-04-25T13:16:53Z</time></trkpt><trkpt lat="43.64199889400818" lon="11.86244245166924"><ele>495.59999999999997</ele><time>2026-04-25T13:16:54Z</time></trkpt><trkpt lat="43.641987791853865" lon="11.862578639733075"><ele>498.0</ele><time>2026-04-25T13:16:55Z</time></trkpt><trkpt lat="43.64195743694161" lon="11.862734359300687"><ele>498.0</ele><time>2026-04-25T13:16:56Z</time></trkpt><trkpt lat="43.64193476779953" lon="11.8628862894762"><ele>497.99999999999994</ele><time>2026-04-25T13:16:57Z</time></trkpt><trkpt lat="43.64191582117008" lon="11.863010310471727"><ele>497.99999999999994</ele><time>2026-04-25T13:16:58Z</time></trkpt><trkpt lat="43.64187760489154" lon="11.863114784264804"><ele>498.0</ele><time>2026-04-25T13:16:59Z</time></trkpt><trkpt lat="43.64182766804509" lon="11.863213493645466"><ele>498.0</ele><time>2026-04-25T13:17:00Z</time></trkpt><trkpt lat="43.641783824721784" lon="11.86334280444244"><ele>499.4</ele><time>2026-04-25T13:17:01Z</time></trkpt><trkpt lat="43.641739260173416" lon="11.863497843201438"><ele>500.79999999999995</ele><time>2026-04-25T13:17:02Z</time></trkpt><trkpt lat="43.641699931645704" lon="11.863614432500114"><ele>502.2</ele><time>2026-04-25T13:17:03Z</time></trkpt><trkpt lat="43.641652135156306" lon="11.863705268693597"><ele>503.6</ele><time>2026-04-25T13:17:04Z</time></trkpt><trkpt lat="43.6415618721443" lon="11.863805362561877"><ele>505.0</ele><time>2026-04-25T13:17:06Z</time></trkpt><trkpt lat="43.6415040883589" lon="11.86396894591603"><ele>505.0</ele><time>2026-04-25T13:17:08Z</time></trkpt><trkpt lat="43.64146132032143" lon="11.864112808380606"><ele>505.0</ele><time>2026-04-25T13:17:09Z</time></trkpt><trkpt lat="43.64142572457362" lon="11.864254140589019"><ele>505.0</ele><time>2026-04-25T13:17:10Z</time></trkpt><trkpt lat="43.641363283382994" lon="11.864366120372102"><ele>505.0</ele><time>2026-04-25T13:17:11Z</time></trkpt><trkpt lat="43.64132196320737" lon="11.864448507901248"><ele>505.0</ele><time>2026-04-25T13:17:12Z</time></trkpt><trkpt lat="43.64124595444806" lon="11.864578144133489"><ele>504.2</ele><time>2026-04-25T13:17:14Z</time></trkpt><trkpt lat="43.641202947344375" lon="11.864685403805348"><ele>503.4</ele><time>2026-04-25T13:17:15Z</time></trkpt><trkpt lat="43.64116145500317" lon="11.864804341298951"><ele>502.6</ele><time>2026-04-25T13:17:16Z</time></trkpt><trkpt lat="43.641118383743" lon="11.864918447495667"><ele>501.8</ele><time>2026-04-25T13:17:17Z</time></trkpt><trkpt lat="43.64107412757199" lon="11.865026113075972"><ele>501.0</ele><time>2026-04-25T13:17:18Z</time></trkpt><trkpt lat="43.64104184367808" lon="11.865151315255904"><ele>501.0</ele><time>2026-04-25T13:17:19Z</time></trkpt><trkpt lat="43.641008257967535" lon="11.865279774832558"><ele>501.0</ele><time>2026-04-25T13:17:20Z</time></trkpt><trkpt lat="43.64097062297269" lon="11.865386329689255"><ele>501.0</ele><time>2026-04-25T13:17:21Z</time></trkpt><trkpt lat="43.640942566125446" lon="11.865470332116091"><ele>501.0</ele><time>2026-04-25T13:17:22Z</time></trkpt><trkpt lat="43.640900614890846" lon="11.865608488525549"><ele>501.0</ele><time>2026-04-25T13:17:23Z</time></trkpt><trkpt lat="43.640856375961974" lon="11.865778494633592"><ele>501.0</ele><time>2026-04-25T13:17:24Z</time></trkpt><trkpt lat="43.64082245170239" lon="11.86590153569953"><ele>501.0</ele><time>2026-04-25T13:17:25Z</time></trkpt><trkpt lat="43.64079527405225" lon="11.866006295008452"><ele>501.0</ele><time>2026-04-25T13:17:26Z</time></trkpt><trkpt lat="43.64076494539979" lon="11.866156754999263"><ele>501.0</ele><time>2026-04-25T13:17:28Z</time></trkpt><trkpt lat="43.64075221474834" lon="11.866243944151181"><ele>501.0</ele><time>2026-04-25T13:17:31Z</time></trkpt><trkpt lat="43.64071013409607" lon="11.866320055432674"><ele>501.0</ele><time>2026-04-25T13:17:34Z</time></trkpt><trkpt lat="43.640656111392005" lon="11.866419017721528"><ele>501.25</ele><time>2026-04-25T13:17:38Z</time></trkpt><trkpt lat="43.640651126115394" lon="11.866640700409873"><ele>501.5</ele><time>2026-04-25T13:17:40Z</time></trkpt><trkpt lat="43.640595652547596" lon="11.866805788134748"><ele>501.75</ele><time>2026-04-25T13:17:41Z</time></trkpt><trkpt lat="43.64061194903564" lon="11.866906308798214"><ele>502.0</ele><time>2026-04-25T13:17:42Z</time></trkpt><trkpt lat="43.640660907371306" lon="11.867064440824809"><ele>502.0</ele><time>2026-04-25T13:17:44Z</time></trkpt><trkpt lat="43.64076832496276" lon="11.867141300948747"><ele>502.00000000000006</ele><time>2026-04-25T13:17:46Z</time></trkpt><trkpt lat="43.64085255136556" lon="11.867133494447758"><ele>502.00000000000006</ele><time>2026-04-25T13:17:47Z</time></trkpt><trkpt lat="43.64095025360767" lon="11.867135942261054"><ele>502.0</ele><time>2026-04-25T13:17:48Z</time></trkpt><trkpt lat="43.641053135950614" lon="11.867168706396907"><ele>502.0</ele><time>2026-04-25T13:17:49Z</time></trkpt><trkpt lat="43.641137584286305" lon="11.867225081997011"><ele>504.75</ele><time>2026-04-25T13:17:50Z</time></trkpt><trkpt lat="43.64121426164114" lon="11.86730679940238"><ele>507.5</ele><time>2026-04-25T13:17:51Z</time></trkpt><trkpt lat="43.64131339374879" lon="11.867562678100875"><ele>510.25</ele><time>2026-04-25T13:17:52Z</time></trkpt><trkpt lat="43.64141820495555" lon="11.867640735752518"><ele>513.0</ele><time>2026-04-25T13:17:53Z</time></trkpt><trkpt lat="43.64152055774801" lon="11.867765132643417"><ele>513.0</ele><time>2026-04-25T13:17:54Z</time></trkpt><trkpt lat="43.64155549616309" lon="11.867946856777156"><ele>513.0</ele><time>2026-04-25T13:17:55Z</time></trkpt><trkpt lat="43.6416560087736" lon="11.868029376399733"><ele>513.0</ele><time>2026-04-25T13:17:56Z</time></trkpt><trkpt lat="43.64172141358159" lon="11.868135918208601"><ele>513.0</ele><time>2026-04-25T13:17:57Z</time></trkpt><trkpt lat="43.64179488323958" lon="11.868320386143768"><ele>512.0</ele><time>2026-04-25T13:17:58Z</time></trkpt><trkpt lat="43.64186015387207" lon="11.868456129708896"><ele>511.0</ele><time>2026-04-25T13:17:59Z</time></trkpt><trkpt lat="43.64193932991952" lon="11.868576058147475"><ele>510.0</ele><time>2026-04-25T13:18:00Z</time></trkpt><trkpt lat="43.64198077555763" lon="11.868706578172569"><ele>509.0</ele><time>2026-04-25T13:18:01Z</time></trkpt><trkpt lat="43.64207190972773" lon="11.868820198587718"><ele>512.0</ele><time>2026-04-25T13:18:02Z</time></trkpt><trkpt lat="43.64215514837392" lon="11.868913912414428"><ele>515.0</ele><time>2026-04-25T13:18:03Z</time></trkpt><trkpt lat="43.64222404876648" lon="11.868977385772242"><ele>518.0</ele><time>2026-04-25T13:18:04Z</time></trkpt><trkpt lat="43.64235161036214" lon="11.869047243526563"><ele>521.0</ele><time>2026-04-25T13:18:06Z</time></trkpt><trkpt lat="43.64249152349095" lon="11.869040490624558"><ele>521.0</ele><time>2026-04-25T13:18:08Z</time></trkpt><trkpt lat="43.64256083402923" lon="11.868995319252344"><ele>521.0</ele><time>2026-04-25T13:18:09Z</time></trkpt><trkpt lat="43.64265359414455" lon="11.86894824188999"><ele>521.0</ele><time>2026-04-25T13:18:10Z</time></trkpt><trkpt lat="43.64282104505302" lon="11.868865624338678"><ele>521.0</ele><time>2026-04-25T13:18:11Z</time></trkpt><trkpt lat="43.6429524714248" lon="11.868815475137668"><ele>519.6</ele><time>2026-04-25T13:18:12Z</time></trkpt><trkpt lat="43.64304254610703" lon="11.86873559949485"><ele>518.2</ele><time>2026-04-25T13:18:13Z</time></trkpt><trkpt lat="43.64312799810385" lon="11.868721278503228"><ele>516.8</ele><time>2026-04-25T13:18:14Z</time></trkpt><trkpt lat="43.6432262757323" lon="11.868673313860532"><ele>515.4</ele><time>2026-04-25T13:18:15Z</time></trkpt><trkpt lat="43.64332172291095" lon="11.868641592573812"><ele>514.0</ele><time>2026-04-25T13:18:16Z</time></trkpt><trkpt lat="43.643388566020434" lon="11.868639265717247"><ele>514.0</ele><time>2026-04-25T13:18:17Z</time></trkpt><trkpt lat="43.64350491939222" lon="11.868679325013504"><ele>514.0</ele><time>2026-04-25T13:18:19Z</time></trkpt><trkpt lat="43.64356474979296" lon="11.868777475840778"><ele>514.0</ele><time>2026-04-25T13:18:20Z</time></trkpt><trkpt lat="43.643614289594254" lon="11.86889811354121"><ele>514.0</ele><time>2026-04-25T13:18:21Z</time></trkpt><trkpt lat="43.64366668416197" lon="11.869046062547847"><ele>514.0</ele><time>2026-04-25T13:18:22Z</time></trkpt><trkpt lat="43.64376455690642" lon="11.869181648409747"><ele>510.25</ele><time>2026-04-25T13:18:23Z</time></trkpt><trkpt lat="43.643881072864744" lon="11.869309282166153"><ele>506.5</ele><time>2026-04-25T13:18:24Z</time></trkpt><trkpt lat="43.643977543061915" lon="11.869432817494829"><ele>502.75</ele><time>2026-04-25T13:18:25Z</time></trkpt><trkpt lat="43.644074420259386" lon="11.869536055702273"><ele>499.0</ele><time>2026-04-25T13:18:26Z</time></trkpt><trkpt lat="43.64415696397417" lon="11.869669452627848"><ele>499.0</ele><time>2026-04-25T13:18:27Z</time></trkpt><trkpt lat="43.644248150641815" lon="11.869754734433615"><ele>499.0</ele><time>2026-04-25T13:18:28Z</time></trkpt><trkpt lat="43.64433363861583" lon="11.869858201342256"><ele>499.0</ele><time>2026-04-25T13:18:29Z</time></trkpt><trkpt lat="43.64439282575464" lon="11.869966968644801"><ele>499.0</ele><time>2026-04-25T13:18:30Z</time></trkpt><trkpt lat="43.644486091330904" lon="11.870073350653389"><ele>499.0</ele><time>2026-04-25T13:18:31Z</time></trkpt><trkpt lat="43.644541045292165" lon="11.870186269597557"><ele>497.6</ele><time>2026-04-25T13:18:32Z</time></trkpt><trkpt lat="43.644616544019776" lon="11.870289901830784"><ele>496.2</ele><time>2026-04-25T13:18:33Z</time></trkpt><trkpt lat="43.644680144714144" lon="11.870402830267869"><ele>494.80000000000007</ele><time>2026-04-25T13:18:34Z</time></trkpt><trkpt lat="43.64477046691698" lon="11.870477818577333"><ele>493.40000000000003</ele><time>2026-04-25T13:18:35Z</time></trkpt><trkpt lat="43.644854806665535" lon="11.870555650712731"><ele>492.0</ele><time>2026-04-25T13:18:36Z</time></trkpt><trkpt lat="43.64492439308786" lon="11.87063312121938"><ele>492.0</ele><time>2026-04-25T13:18:37Z</time></trkpt><trkpt lat="43.645030357261525" lon="11.870639849197026"><ele>492.00000000000006</ele><time>2026-04-25T13:18:38Z</time></trkpt><trkpt lat="43.645128900232784" lon="11.870675700640449"><ele>492.00000000000006</ele><time>2026-04-25T13:18:39Z</time></trkpt><trkpt lat="43.64523424448469" lon="11.870656224332581"><ele>492.0</ele><time>2026-04-25T13:18:40Z</time></trkpt><trkpt lat="43.645321822129304" lon="11.870615718778843"><ele>492.0</ele><time>2026-04-25T13:18:41Z</time></trkpt><trkpt lat="43.64540104562669" lon="11.870551097205896"><ele>489.25</ele><time>2026-04-25T13:18:42Z</time></trkpt><trkpt lat="43.645475864630136" lon="11.870500899605942"><ele>486.5</ele><time>2026-04-25T13:18:43Z</time></trkpt><trkpt lat="43.64559227254123" lon="11.870507829094757"><ele>483.75</ele><time>2026-04-25T13:18:45Z</time></trkpt><trkpt lat="43.64562751041549" lon="11.870724744833659"><ele>481.0</ele><time>2026-04-25T13:18:47Z</time></trkpt><trkpt lat="43.645621053047776" lon="11.870882560750168"><ele>480.75</ele><time>2026-04-25T13:18:48Z</time></trkpt><trkpt lat="43.64560653077826" lon="11.871083464813438"><ele>480.5</ele><time>2026-04-25T13:18:49Z</time></trkpt><trkpt lat="43.645608854098676" lon="11.871227707343403"><ele>480.25</ele><time>2026-04-25T13:18:50Z</time></trkpt><trkpt lat="43.64563383626064" lon="11.871371670320686"><ele>480.0</ele><time>2026-04-25T13:18:51Z</time></trkpt><trkpt lat="43.64569148310408" lon="11.871488710047295"><ele>480.0</ele><time>2026-04-25T13:18:52Z</time></trkpt><trkpt lat="43.64574567653449" lon="11.871595701050788"><ele>480.0</ele><time>2026-04-25T13:18:53Z</time></trkpt><trkpt lat="43.64579853389321" lon="11.871722825761594"><ele>480.0</ele><time>2026-04-25T13:18:54Z</time></trkpt><trkpt lat="43.64582308952032" lon="11.87185260911612"><ele>480.0</ele><time>2026-04-25T13:18:55Z</time></trkpt><trkpt lat="43.64583791512366" lon="11.871982447555087"><ele>480.0</ele><time>2026-04-25T13:18:56Z</time></trkpt><trkpt lat="43.6458635444351" lon="11.872113806147734"><ele>479.0</ele><time>2026-04-25T13:18:57Z</time></trkpt><trkpt lat="43.64588038202148" lon="11.872210357413252"><ele>478.0</ele><time>2026-04-25T13:18:58Z</time></trkpt><trkpt lat="43.64592063105295" lon="11.872343358522272"><ele>477.0</ele><time>2026-04-25T13:19:00Z</time></trkpt><trkpt lat="43.64575646401415" lon="11.872641872236228"><ele>476.0</ele><time>2026-04-25T13:19:02Z</time></trkpt><trkpt lat="43.6457153956904" lon="11.872781533957554"><ele>474.8</ele><time>2026-04-25T13:19:03Z</time></trkpt><trkpt lat="43.645747659931615" lon="11.87295060037761"><ele>473.6</ele><time>2026-04-25T13:19:05Z</time></trkpt><trkpt lat="43.645803445444315" lon="11.873084234395526"><ele>472.4</ele><time>2026-04-25T13:19:06Z</time></trkpt><trkpt lat="43.645834729162786" lon="11.8732200329386"><ele>471.2</ele><time>2026-04-25T13:19:07Z</time></trkpt><trkpt lat="43.64584680296208" lon="11.873311317579498"><ele>470.0</ele><time>2026-04-25T13:19:08Z</time></trkpt><trkpt lat="43.645817146176284" lon="11.873428979866445"><ele>468.2</ele><time>2026-04-25T13:19:09Z</time></trkpt><trkpt lat="43.64580900653015" lon="11.873566733691186"><ele>466.4</ele><time>2026-04-25T13:19:10Z</time></trkpt><trkpt lat="43.6457713712986" lon="11.873682029482334"><ele>464.6</ele><time>2026-04-25T13:19:11Z</time></trkpt><trkpt lat="43.64572216504308" lon="11.873802308619018"><ele>462.8</ele><time>2026-04-25T13:19:12Z</time></trkpt><trkpt lat="43.645671533811935" lon="11.873922738858004"><ele>461.0</ele><time>2026-04-25T13:19:13Z</time></trkpt><trkpt lat="43.64562184970217" lon="11.874034840333344"><ele>461.0</ele><time>2026-04-25T13:19:14Z</time></trkpt><trkpt lat="43.64556450885839" lon="11.874136107908114"><ele>461.0</ele><time>2026-04-25T13:19:15Z</time></trkpt><trkpt lat="43.645547138510125" lon="11.874312251290105"><ele>461.0</ele><time>2026-04-25T13:19:17Z</time></trkpt><trkpt lat="43.645435965333625" lon="11.87437562425006"><ele>461.0</ele><time>2026-04-25T13:19:19Z</time></trkpt><trkpt lat="43.6453344387711" lon="11.874386024763993"><ele>461.0</ele><time>2026-04-25T13:19:20Z</time></trkpt><trkpt lat="43.64527355728428" lon="11.874446301019486"><ele>461.20000000000005</ele><time>2026-04-25T13:19:21Z</time></trkpt><trkpt lat="43.64524698817746" lon="11.874526312868726"><ele>461.40000000000003</ele><time>2026-04-25T13:19:22Z</time></trkpt><trkpt lat="43.64526283589267" lon="11.874648282634649"><ele>461.6</ele><time>2026-04-25T13:19:23Z</time></trkpt><trkpt lat="43.64521929165775" lon="11.874764896513533"><ele>461.8</ele><time>2026-04-25T13:19:24Z</time></trkpt><trkpt lat="43.645155819051226" lon="11.874882903180321"><ele>462.0</ele><time>2026-04-25T13:19:25Z</time></trkpt><trkpt lat="43.64508145563279" lon="11.874969303291127"><ele>462.0</ele><time>2026-04-25T13:19:26Z</time></trkpt><trkpt lat="43.64500953977622" lon="11.875027789389073"><ele>462.00000000000006</ele><time>2026-04-25T13:19:27Z</time></trkpt><trkpt lat="43.644921586710815" lon="11.875103562846837"><ele>462.00000000000006</ele><time>2026-04-25T13:19:28Z</time></trkpt><trkpt lat="43.644842732154025" lon="11.875200038842259"><ele>462.0</ele><time>2026-04-25T13:19:29Z</time></trkpt><trkpt lat="43.644796728980246" lon="11.875325329465936"><ele>462.0</ele><time>2026-04-25T13:19:30Z</time></trkpt><trkpt lat="43.64474484902054" lon="11.875406917959667"><ele>462.40000000000003</ele><time>2026-04-25T13:19:31Z</time></trkpt><trkpt lat="43.64484239693596" lon="11.875402057007761"><ele>462.80000000000007</ele><time>2026-04-25T13:19:37Z</time></trkpt><trkpt lat="43.64491880503075" lon="11.875325886037784"><ele>463.2</ele><time>2026-04-25T13:19:39Z</time></trkpt><trkpt lat="43.64499753475892" lon="11.87527794045571"><ele>463.6</ele><time>2026-04-25T13:19:41Z</time></trkpt><trkpt lat="43.645109219904676" lon="11.8752869756028"><ele>464.0</ele><time>2026-04-25T13:19:43Z</time></trkpt><trkpt lat="43.64517585202094" lon="11.875285719096462"><ele>463.99999999999994</ele><time>2026-04-25T13:19:44Z</time></trkpt><trkpt lat="43.64524865266909" lon="11.875268884847616"><ele>464.0</ele><time>2026-04-25T13:19:45Z</time></trkpt><trkpt lat="43.64531599774596" lon="11.875265348586638"><ele>464.0</ele><time>2026-04-25T13:19:46Z</time></trkpt><trkpt lat="43.64541394187124" lon="11.875244115684705"><ele>464.0</ele><time>2026-04-25T13:19:47Z</time></trkpt><trkpt lat="43.64550432422294" lon="11.8752232127625"><ele>463.99999999999994</ele><time>2026-04-25T13:19:48Z</time></trkpt><trkpt lat="43.645573800789414" lon="11.87522000063033"><ele>464.0</ele><time>2026-04-25T13:19:49Z</time></trkpt><trkpt lat="43.64567746556965" lon="11.875251938303304"><ele>466.0</ele><time>2026-04-25T13:19:51Z</time></trkpt><trkpt lat="43.645754385899444" lon="11.875227999872495"><ele>468.0</ele><time>2026-04-25T13:19:54Z</time></trkpt><trkpt lat="43.64581377153048" lon="11.875156273490266"><ele>470.0</ele><time>2026-04-25T13:19:56Z</time></trkpt><trkpt lat="43.64634598601259" lon="11.875370968134611"><ele>471.2</ele><time>2026-04-25T13:19:59Z</time></trkpt><trkpt lat="43.64633953477401" lon="11.875534499867642"><ele>472.4</ele><time>2026-04-25T13:20:00Z</time></trkpt><trkpt lat="43.64636246201888" lon="11.875654474640617"><ele>473.6</ele><time>2026-04-25T13:20:01Z</time></trkpt><trkpt lat="43.646433284924555" lon="11.875705137849957"><ele>474.8</ele><time>2026-04-25T13:20:02Z</time></trkpt><trkpt lat="43.64653597808236" lon="11.875842139723334"><ele>476.0</ele><time>2026-04-25T13:20:03Z</time></trkpt><trkpt lat="43.64661904645968" lon="11.875876065833651"><ele>475.99999999999994</ele><time>2026-04-25T13:20:05Z</time></trkpt><trkpt lat="43.64665537978473" lon="11.87578230543873"><ele>476.0</ele><time>2026-04-25T13:20:06Z</time></trkpt><trkpt lat="43.64676627170232" lon="11.875680427799422"><ele>476.0</ele><time>2026-04-25T13:20:08Z</time></trkpt><trkpt lat="43.646821596451026" lon="11.875617289224088"><ele>476.0</ele><time>2026-04-25T13:20:09Z</time></trkpt><trkpt lat="43.64687842724517" lon="11.875542872588374"><ele>475.99999999999994</ele><time>2026-04-25T13:20:10Z</time></trkpt><trkpt lat="43.646954362297556" lon="11.875484584066676"><ele>476.0</ele><time>2026-04-25T13:20:11Z</time></trkpt><trkpt lat="43.64704098579352" lon="11.875449302170049"><ele>475.6</ele><time>2026-04-25T13:20:12Z</time></trkpt><trkpt lat="43.647148236360344" lon="11.875450737642945"><ele>475.20000000000005</ele><time>2026-04-25T13:20:13Z</time></trkpt><trkpt lat="43.64724630065242" lon="11.875472080778623"><ele>474.79999999999995</ele><time>2026-04-25T13:20:14Z</time></trkpt><trkpt lat="43.647332161326844" lon="11.875543510254023"><ele>474.4</ele><time>2026-04-25T13:20:15Z</time></trkpt><trkpt lat="43.647395316654816" lon="11.875634299212335"><ele>474.0</ele><time>2026-04-25T13:20:16Z</time></trkpt><trkpt lat="43.64739750402618" lon="11.875768730675516"><ele>474.0</ele><time>2026-04-25T13:20:17Z</time></trkpt><trkpt lat="43.647501819888376" lon="11.875820853432808"><ele>474.0</ele><time>2026-04-25T13:20:18Z</time></trkpt><trkpt lat="43.64766090125973" lon="11.875867345232589"><ele>474.0</ele><time>2026-04-25T13:20:19Z</time></trkpt><trkpt lat="43.64776156015634" lon="11.87590694267293"><ele>474.0</ele><time>2026-04-25T13:20:20Z</time></trkpt><trkpt lat="43.64787728521434" lon="11.875943459891701"><ele>473.79999999999995</ele><time>2026-04-25T13:20:21Z</time></trkpt><trkpt lat="43.647973057418845" lon="11.875963928862182"><ele>473.59999999999997</ele><time>2026-04-25T13:20:22Z</time></trkpt><trkpt lat="43.648079768734256" lon="11.875949707084125"><ele>473.4</ele><time>2026-04-25T13:20:23Z</time></trkpt><trkpt lat="43.64817353596557" lon="11.875960840561094"><ele>473.2</ele><time>2026-04-25T13:20:24Z</time></trkpt><trkpt lat="43.64826522372047" lon="11.875998555949193"><ele>473.0</ele><time>2026-04-25T13:20:26Z</time></trkpt><trkpt lat="43.648324520406824" lon="11.876102176365265"><ele>473.0</ele><time>2026-04-25T13:20:28Z</time></trkpt><trkpt lat="43.648411940139816" lon="11.876182886035892"><ele>472.99999999999994</ele><time>2026-04-25T13:20:30Z</time></trkpt><trkpt lat="43.648525850677046" lon="11.876212633243828"><ele>472.99999999999994</ele><time>2026-04-25T13:20:32Z</time></trkpt><trkpt lat="43.648605938130345" lon="11.876184668752336"><ele>473.0</ele><time>2026-04-25T13:20:36Z</time></trkpt><trkpt lat="43.64867632176174" lon="11.876155670728668"><ele>473.0</ele><time>2026-04-25T13:20:38Z</time></trkpt><trkpt lat="43.6487534016359" lon="11.876170425748194"><ele>470.4</ele><time>2026-04-25T13:20:39Z</time></trkpt><trkpt lat="43.64883261883346" lon="11.876180609108445"><ele>467.79999999999995</ele><time>2026-04-25T13:20:41Z</time></trkpt><trkpt lat="43.64891399071197" lon="11.876134770480723"><ele>465.2</ele><time>2026-04-25T13:20:44Z</time></trkpt><trkpt lat="43.64897736769139" lon="11.876165389066117"><ele>462.6</ele><time>2026-04-25T13:20:46Z</time></trkpt><trkpt lat="43.64904677448686" lon="11.876254065064371"><ele>460.0</ele><time>2026-04-25T13:20:48Z</time></trkpt><trkpt lat="43.649404496328785" lon="11.876354808063745"><ele>453.75</ele><time>2026-04-25T13:20:50Z</time></trkpt><trkpt lat="43.64948560852697" lon="11.876435439547645"><ele>447.5</ele><time>2026-04-25T13:20:51Z</time></trkpt><trkpt lat="43.649578062227526" lon="11.87649561055304"><ele>441.25</ele><time>2026-04-25T13:20:52Z</time></trkpt><trkpt lat="43.64966519622691" lon="11.876551935631742"><ele>435.0</ele><time>2026-04-25T13:20:53Z</time></trkpt><trkpt lat="43.64979619071812" lon="11.876731118160409"><ele>436.8</ele><time>2026-04-25T13:20:54Z</time></trkpt><trkpt lat="43.649886979368375" lon="11.87683642991523"><ele>438.6</ele><time>2026-04-25T13:20:55Z</time></trkpt><trkpt lat="43.649998679617774" lon="11.876896902368648"><ele>440.4</ele><time>2026-04-25T13:20:57Z</time></trkpt><trkpt lat="43.65008399607203" lon="11.876960181542472"><ele>442.2</ele><time>2026-04-25T13:20:58Z</time></trkpt><trkpt lat="43.65012238947788" lon="11.877029651829455"><ele>444.0</ele><time>2026-04-25T13:20:59Z</time></trkpt><trkpt lat="43.65017801758084" lon="11.877127347830463"><ele>444.0</ele><time>2026-04-25T13:21:01Z</time></trkpt><trkpt lat="43.650274572579505" lon="11.877210040389988"><ele>444.0</ele><time>2026-04-25T13:21:03Z</time></trkpt><trkpt lat="43.65034316377655" lon="11.877269041450411"><ele>444.0</ele><time>2026-04-25T13:21:04Z</time></trkpt><trkpt lat="43.6503942894797" lon="11.877335055550052"><ele>444.0</ele><time>2026-04-25T13:21:05Z</time></trkpt><trkpt lat="43.65039691812621" lon="11.877461527405428"><ele>444.0</ele><time>2026-04-25T13:21:07Z</time></trkpt><trkpt lat="43.650385055217654" lon="11.877607194009125"><ele>450.0</ele><time>2026-04-25T13:21:08Z</time></trkpt><trkpt lat="43.65046594047959" lon="11.877539980800712"><ele>456.0</ele><time>2026-04-25T13:21:15Z</time></trkpt><trkpt lat="43.65072363232259" lon="11.877063141458352"><ele>456.0</ele><time>2026-04-25T13:21:17Z</time></trkpt><trkpt lat="43.650625260024576" lon="11.876798729909403"><ele>456.0</ele><time>2026-04-25T13:21:18Z</time></trkpt><trkpt lat="43.65061795880251" lon="11.8766325960398"><ele>456.0</ele><time>2026-04-25T13:21:19Z</time></trkpt><trkpt lat="43.65062640351396" lon="11.876493232497854"><ele>456.0</ele><time>2026-04-25T13:21:20Z</time></trkpt><trkpt lat="43.650617882320034" lon="11.876293907660173"><ele>455.6</ele><time>2026-04-25T13:21:21Z</time></trkpt><trkpt lat="43.650585504517885" lon="11.876175231010743"><ele>455.20000000000005</ele><time>2026-04-25T13:21:22Z</time></trkpt><trkpt lat="43.650626899267984" lon="11.876093544755527"><ele>454.79999999999995</ele><time>2026-04-25T13:21:23Z</time></trkpt><trkpt lat="43.65071072137662" lon="11.876036920948453"><ele>454.4</ele><time>2026-04-25T13:21:24Z</time></trkpt><trkpt lat="43.650800281490625" lon="11.875856089075382"><ele>454.0</ele><time>2026-04-25T13:21:25Z</time></trkpt><trkpt lat="43.65078233446992" lon="11.875637290452001"><ele>454.79999999999995</ele><time>2026-04-25T13:21:26Z</time></trkpt><trkpt lat="43.65081311862861" lon="11.875544505428238"><ele>455.59999999999997</ele><time>2026-04-25T13:21:27Z</time></trkpt><trkpt lat="43.650878610963794" lon="11.875523318371371"><ele>456.4</ele><time>2026-04-25T13:21:28Z</time></trkpt><trkpt lat="43.65095507334829" lon="11.875417871537012"><ele>457.2</ele><time>2026-04-25T13:21:29Z</time></trkpt><trkpt lat="43.651088796632244" lon="11.875291829272154"><ele>458.0</ele><time>2026-04-25T13:21:30Z</time></trkpt><trkpt lat="43.65121038853496" lon="11.875251636019248"><ele>458.0</ele><time>2026-04-25T13:21:31Z</time></trkpt><trkpt lat="43.65128403903665" lon="11.875198703264662"><ele>458.0</ele><time>2026-04-25T13:21:32Z</time></trkpt><trkpt lat="43.65134074343444" lon="11.875147959798996"><ele>458.0</ele><time>2026-04-25T13:21:33Z</time></trkpt><trkpt lat="43.65148979139066" lon="11.875263691847058"><ele>458.0</ele><time>2026-04-25T13:21:34Z</time></trkpt><trkpt lat="43.651665297076285" lon="11.875352584345688"><ele>458.0</ele><time>2026-04-25T13:21:35Z</time></trkpt><trkpt lat="43.65177635154207" lon="11.875422840300908"><ele>457.99999999999994</ele><time>2026-04-25T13:21:36Z</time></trkpt><trkpt lat="43.651844978890324" lon="11.875503183225431"><ele>457.99999999999994</ele><time>2026-04-25T13:21:37Z</time></trkpt><trkpt lat="43.651949049286685" lon="11.875565063734394"><ele>458.0</ele><time>2026-04-25T13:21:38Z</time></trkpt><trkpt lat="43.652041933944595" lon="11.875641065890933"><ele>458.0</ele><time>2026-04-25T13:21:39Z</time></trkpt><trkpt lat="43.652123514502485" lon="11.87571271496266"><ele>458.0</ele><time>2026-04-25T13:21:40Z</time></trkpt><trkpt lat="43.652230740623175" lon="11.875806898320674"><ele>458.0</ele><time>2026-04-25T13:21:41Z</time></trkpt><trkpt lat="43.65235819976288" lon="11.87591346216207"><ele>458.0</ele><time>2026-04-25T13:21:42Z</time></trkpt><trkpt lat="43.65248578523392" lon="11.876029032699805"><ele>458.0</ele><time>2026-04-25T13:21:43Z</time></trkpt><trkpt lat="43.65259895006317" lon="11.876107683950142"><ele>460.16666666666663</ele><time>2026-04-25T13:21:44Z</time></trkpt><trkpt lat="43.6526858521421" lon="11.876183685258862"><ele>462.3333333333333</ele><time>2026-04-25T13:21:45Z</time></trkpt><trkpt lat="43.652744049228566" lon="11.876238072371905"><ele>464.5</ele><time>2026-04-25T13:21:46Z</time></trkpt><trkpt lat="43.65280882310171" lon="11.876307001614846"><ele>466.66666666666663</ele><time>2026-04-25T13:21:47Z</time></trkpt><trkpt lat="43.6528596373543" lon="11.87638952755335"><ele>468.8333333333333</ele><time>2026-04-25T13:21:48Z</time></trkpt><trkpt lat="43.65287739355116" lon="11.876495527972196"><ele>471.0</ele><time>2026-04-25T13:21:49Z</time></trkpt><trkpt lat="43.65292435925601" lon="11.87659301977815"><ele>471.3333333333333</ele><time>2026-04-25T13:21:50Z</time></trkpt><trkpt lat="43.652981562449206" lon="11.876650597844549"><ele>471.66666666666663</ele><time>2026-04-25T13:21:51Z</time></trkpt><trkpt lat="43.65307228976988" lon="11.876681227128019"><ele>472.0</ele><time>2026-04-25T13:21:52Z</time></trkpt><trkpt lat="43.65318338470363" lon="11.87671304205752"><ele>472.3333333333333</ele><time>2026-04-25T13:21:53Z</time></trkpt><trkpt lat="43.653275243326945" lon="11.876748419864096"><ele>472.66666666666663</ele><time>2026-04-25T13:21:54Z</time></trkpt><trkpt lat="43.65333724280296" lon="11.87677091058709"><ele>473.0</ele><time>2026-04-25T13:21:55Z</time></trkpt><trkpt lat="43.653391516076965" lon="11.876817369222461"><ele>475.0</ele><time>2026-04-25T13:21:57Z</time></trkpt><trkpt lat="43.65341267576644" lon="11.876933982321761"><ele>476.99999999999994</ele><time>2026-04-25T13:21:58Z</time></trkpt><trkpt lat="43.65348973784756" lon="11.876920314830897"><ele>478.99999999999994</ele><time>2026-04-25T13:22:12Z</time></trkpt><trkpt lat="43.653568521314476" lon="11.876897663978523"><ele>481.0</ele><time>2026-04-25T13:22:13Z</time></trkpt><trkpt lat="43.653661730912674" lon="11.876900511255654"><ele>483.0</ele><time>2026-04-25T13:22:14Z</time></trkpt><trkpt lat="43.65377438740651" lon="11.87690977726907"><ele>483.0</ele><time>2026-04-25T13:22:15Z</time></trkpt><trkpt lat="43.65388810142792" lon="11.876920788066391"><ele>482.99999999999994</ele><time>2026-04-25T13:22:16Z</time></trkpt><trkpt lat="43.653989530229445" lon="11.876912562090693"><ele>482.99999999999994</ele><time>2026-04-25T13:22:17Z</time></trkpt><trkpt lat="43.65408193652033" lon="11.876863065657416"><ele>483.0</ele><time>2026-04-25T13:22:18Z</time></trkpt><trkpt lat="43.654166798392765" lon="11.876775671843324"><ele>483.0</ele><time>2026-04-25T13:22:19Z</time></trkpt><trkpt lat="43.6542391948994" lon="11.876647837801075"><ele>482.79999999999995</ele><time>2026-04-25T13:22:20Z</time></trkpt><trkpt lat="43.65430998827154" lon="11.876513474526755"><ele>482.59999999999997</ele><time>2026-04-25T13:22:21Z</time></trkpt><trkpt lat="43.65438473646618" lon="11.876406457620407"><ele>482.40000000000003</ele><time>2026-04-25T13:22:22Z</time></trkpt><trkpt lat="43.65446976899662" lon="11.876335527404583"><ele>482.20000000000005</ele><time>2026-04-25T13:22:23Z</time></trkpt><trkpt lat="43.6545879470552" lon="11.876293848293477"><ele>482.0</ele><time>2026-04-25T13:22:24Z</time></trkpt><trkpt lat="43.65471199447211" lon="11.87629384543334"><ele>482.0</ele><time>2026-04-25T13:22:25Z</time></trkpt><trkpt lat="43.65483968946647" lon="11.87628963857611"><ele>482.0</ele><time>2026-04-25T13:22:26Z</time></trkpt><trkpt lat="43.65496201201131" lon="11.876270124271572"><ele>482.0</ele><time>2026-04-25T13:22:27Z</time></trkpt><trkpt lat="43.65508198249292" lon="11.876217482448068"><ele>482.0</ele><time>2026-04-25T13:22:28Z</time></trkpt><trkpt lat="43.65519537378079" lon="11.876132423292427"><ele>484.5</ele><time>2026-04-25T13:22:29Z</time></trkpt><trkpt lat="43.655296273203795" lon="11.876028201246836"><ele>487.0</ele><time>2026-04-25T13:22:30Z</time></trkpt><trkpt lat="43.655395538677396" lon="11.875900915338432"><ele>489.5</ele><time>2026-04-25T13:22:31Z</time></trkpt><trkpt lat="43.655492889219374" lon="11.875767145306433"><ele>492.0</ele><time>2026-04-25T13:22:32Z</time></trkpt><trkpt lat="43.65559019612109" lon="11.8756366774379"><ele>486.75</ele><time>2026-04-25T13:22:33Z</time></trkpt><trkpt lat="43.65567474052814" lon="11.875510897505492"><ele>481.5</ele><time>2026-04-25T13:22:34Z</time></trkpt><trkpt lat="43.655763126143" lon="11.875392964650885"><ele>476.25</ele><time>2026-04-25T13:22:35Z</time></trkpt><trkpt lat="43.6558469013441" lon="11.875281941221886"><ele>471.0</ele><time>2026-04-25T13:22:36Z</time></trkpt><trkpt lat="43.655926045561046" lon="11.8751747521468"><ele>469.4</ele><time>2026-04-25T13:22:37Z</time></trkpt><trkpt lat="43.656006576265824" lon="11.875091238209361"><ele>467.8</ele><time>2026-04-25T13:22:38Z</time></trkpt><trkpt lat="43.65610470430459" lon="11.875043636434933"><ele>466.19999999999993</ele><time>2026-04-25T13:22:39Z</time></trkpt><trkpt lat="43.65621124664756" lon="11.875037312534273"><ele>464.59999999999997</ele><time>2026-04-25T13:22:40Z</time></trkpt><trkpt lat="43.6563277317048" lon="11.875052690487156"><ele>463.0</ele><time>2026-04-25T13:22:41Z</time></trkpt><trkpt lat="43.65646043253444" lon="11.875066018591935"><ele>463.0</ele><time>2026-04-25T13:22:42Z</time></trkpt><trkpt lat="43.65659713114981" lon="11.875029540806334"><ele>463.0</ele><time>2026-04-25T13:22:43Z</time></trkpt><trkpt lat="43.65672580668213" lon="11.87493946706398"><ele>463.0</ele><time>2026-04-25T13:22:44Z</time></trkpt><trkpt lat="43.65684647374363" lon="11.87482968146039"><ele>463.0</ele><time>2026-04-25T13:22:45Z</time></trkpt><trkpt lat="43.656953360019145" lon="11.874722440577647"><ele>466.25</ele><time>2026-04-25T13:22:46Z</time></trkpt><trkpt lat="43.65705973735649" lon="11.874631598003088"><ele>469.5</ele><time>2026-04-25T13:22:47Z</time></trkpt><trkpt lat="43.65716286768774" lon="11.874541519801385"><ele>472.75</ele><time>2026-04-25T13:22:48Z</time></trkpt><trkpt lat="43.65725887347894" lon="11.8744470320851"><ele>476.0</ele><time>2026-04-25T13:22:49Z</time></trkpt><trkpt lat="43.65735952518082" lon="11.874355430487265"><ele>469.5</ele><time>2026-04-25T13:22:50Z</time></trkpt><trkpt lat="43.6574601440959" lon="11.874262893761033"><ele>463.0</ele><time>2026-04-25T13:22:51Z</time></trkpt><trkpt lat="43.65755267999046" lon="11.874172823776094"><ele>456.5</ele><time>2026-04-25T13:22:52Z</time></trkpt><trkpt lat="43.657644732746604" lon="11.874083733233928"><ele>450.0</ele><time>2026-04-25T13:22:53Z</time></trkpt><trkpt lat="43.65772704943739" lon="11.873995448854226"><ele>450.2</ele><time>2026-04-25T13:22:54Z</time></trkpt><trkpt lat="43.65781705448522" lon="11.873931304974944"><ele>450.4</ele><time>2026-04-25T13:22:55Z</time></trkpt><trkpt lat="43.657911965940386" lon="11.873882100191562"><ele>450.6</ele><time>2026-04-25T13:22:56Z</time></trkpt><trkpt lat="43.65800917694591" lon="11.873866113688486"><ele>450.8</ele><time>2026-04-25T13:22:57Z</time></trkpt><trkpt lat="43.658105574049586" lon="11.873865907023351"><ele>451.0</ele><time>2026-04-25T13:22:58Z</time></trkpt><trkpt lat="43.65819501030898" lon="11.873869836038459"><ele>451.0</ele><time>2026-04-25T13:22:59Z</time></trkpt><trkpt lat="43.6582581732481" lon="11.873876762234922"><ele>451.0</ele><time>2026-04-25T13:23:00Z</time></trkpt><trkpt lat="43.65832350525433" lon="11.873954894139896"><ele>451.0</ele><time>2026-04-25T13:23:02Z</time></trkpt><trkpt lat="43.658435861777505" lon="11.87396453829202"><ele>451.0</ele><time>2026-04-25T13:23:04Z</time></trkpt><trkpt lat="43.658489772424694" lon="11.874283699623689"><ele>455.4</ele><time>2026-04-25T13:23:05Z</time></trkpt><trkpt lat="43.65858746084376" lon="11.874362377872156"><ele>459.8</ele><time>2026-04-25T13:23:06Z</time></trkpt><trkpt lat="43.658676681788336" lon="11.87443774067407"><ele>464.19999999999993</ele><time>2026-04-25T13:23:07Z</time></trkpt><trkpt lat="43.65877087381419" lon="11.874460084716521"><ele>468.59999999999997</ele><time>2026-04-25T13:23:08Z</time></trkpt><trkpt lat="43.658884561496336" lon="11.874423535791712"><ele>473.0</ele><time>2026-04-25T13:23:09Z</time></trkpt><trkpt lat="43.65901047674139" lon="11.87433424930707"><ele>470.25</ele><time>2026-04-25T13:23:10Z</time></trkpt><trkpt lat="43.65909991456779" lon="11.874229556001955"><ele>467.5</ele><time>2026-04-25T13:23:11Z</time></trkpt><trkpt lat="43.659164438667005" lon="11.874101972568306"><ele>464.75</ele><time>2026-04-25T13:23:12Z</time></trkpt><trkpt lat="43.659232480648875" lon="11.873908677994535"><ele>462.0</ele><time>2026-04-25T13:23:13Z</time></trkpt><trkpt lat="43.659295523032036" lon="11.873716674136919"><ele>462.0</ele><time>2026-04-25T13:23:14Z</time></trkpt><trkpt lat="43.65935129033427" lon="11.873600677068938"><ele>462.0</ele><time>2026-04-25T13:23:15Z</time></trkpt><trkpt lat="43.65943533727572" lon="11.873492897918233"><ele>462.0</ele><time>2026-04-25T13:23:16Z</time></trkpt><trkpt lat="43.65956332853944" lon="11.87337568609005"><ele>462.0</ele><time>2026-04-25T13:23:17Z</time></trkpt><trkpt lat="43.6596615169621" lon="11.873259539119418"><ele>462.1666666666667</ele><time>2026-04-25T13:23:18Z</time></trkpt><trkpt lat="43.659715291534816" lon="11.873179015956552"><ele>462.33333333333337</ele><time>2026-04-25T13:23:19Z</time></trkpt><trkpt lat="43.65978947108626" lon="11.873168640656434"><ele>462.5</ele><time>2026-04-25T13:23:20Z</time></trkpt><trkpt lat="43.659873436391365" lon="11.873198814533982"><ele>462.6666666666667</ele><time>2026-04-25T13:23:21Z</time></trkpt><trkpt lat="43.659922208770546" lon="11.873268320056205"><ele>462.83333333333337</ele><time>2026-04-25T13:23:22Z</time></trkpt><trkpt lat="43.65997741818284" lon="11.873378412772455"><ele>463.0</ele><time>2026-04-25T13:23:23Z</time></trkpt><trkpt lat="43.66000810671874" lon="11.873541428193677"><ele>466.25</ele><time>2026-04-25T13:23:24Z</time></trkpt><trkpt lat="43.66002746250281" lon="11.873722600831865"><ele>469.5</ele><time>2026-04-25T13:23:25Z</time></trkpt><trkpt lat="43.66003427799152" lon="11.873907663938244"><ele>472.75</ele><time>2026-04-25T13:23:26Z</time></trkpt><trkpt lat="43.66006880614103" lon="11.874119498019027"><ele>476.0</ele><time>2026-04-25T13:23:27Z</time></trkpt><trkpt lat="43.66014990838073" lon="11.874370510357991"><ele>478.75</ele><time>2026-04-25T13:23:28Z</time></trkpt><trkpt lat="43.660218605213345" lon="11.87463632571952"><ele>481.5</ele><time>2026-04-25T13:23:29Z</time></trkpt><trkpt lat="43.660267865226906" lon="11.874782839811031"><ele>484.25</ele><time>2026-04-25T13:23:30Z</time></trkpt><trkpt lat="43.66034825537189" lon="11.874837461588662"><ele>487.0</ele><time>2026-04-25T13:23:32Z</time></trkpt><trkpt lat="43.660521043239825" lon="11.874871893609356"><ele>487.0</ele><time>2026-04-25T13:23:34Z</time></trkpt><trkpt lat="43.66065329900302" lon="11.874851453465736"><ele>487.0</ele><time>2026-04-25T13:23:35Z</time></trkpt><trkpt lat="43.66077852660874" lon="11.87485298667866"><ele>487.0</ele><time>2026-04-25T13:23:36Z</time></trkpt><trkpt lat="43.660894013965084" lon="11.874900181146538"><ele>487.0</ele><time>2026-04-25T13:23:37Z</time></trkpt><trkpt lat="43.66099754841409" lon="11.874919769836628"><ele>487.0</ele><time>2026-04-25T13:23:38Z</time></trkpt><trkpt lat="43.66108628035847" lon="11.874899061271801"><ele>487.0</ele><time>2026-04-25T13:23:39Z</time></trkpt><trkpt lat="43.661145666640124" lon="11.874781732910185"><ele>487.0</ele><time>2026-04-25T13:23:40Z</time></trkpt><trkpt lat="43.66119489675532" lon="11.874613368621157"><ele>487.0</ele><time>2026-04-25T13:23:41Z</time></trkpt><trkpt lat="43.661250717760275" lon="11.874438868711353"><ele>487.0</ele><time>2026-04-25T13:23:42Z</time></trkpt><trkpt lat="43.6613504978403" lon="11.874291591947719"><ele>487.0</ele><time>2026-04-25T13:23:43Z</time></trkpt><trkpt lat="43.66147106967224" lon="11.874181226144591"><ele>487.0</ele><time>2026-04-25T13:23:44Z</time></trkpt><trkpt lat="43.661580435439355" lon="11.874103400891952"><ele>487.0</ele><time>2026-04-25T13:23:45Z</time></trkpt><trkpt lat="43.66168463923127" lon="11.874071308629981"><ele>486.5</ele><time>2026-04-25T13:23:46Z</time></trkpt><trkpt lat="43.66181486392834" lon="11.874086166979698"><ele>486.0</ele><time>2026-04-25T13:23:47Z</time></trkpt><trkpt lat="43.661958600731204" lon="11.874131869582548"><ele>485.5</ele><time>2026-04-25T13:23:48Z</time></trkpt><trkpt lat="43.662099399818835" lon="11.874193856589967"><ele>485.0</ele><time>2026-04-25T13:23:49Z</time></trkpt><trkpt lat="43.6622357734404" lon="11.874281157994982"><ele>485.0</ele><time>2026-04-25T13:23:50Z</time></trkpt><trkpt lat="43.66237280119913" lon="11.874325593894081"><ele>485.0</ele><time>2026-04-25T13:23:51Z</time></trkpt><trkpt lat="43.662528378609274" lon="11.874310847350124"><ele>485.0</ele><time>2026-04-25T13:23:52Z</time></trkpt><trkpt lat="43.66268808111557" lon="11.874282422298451"><ele>481.75</ele><time>2026-04-25T13:23:53Z</time></trkpt><trkpt lat="43.66283469402781" lon="11.874268649366064"><ele>478.5</ele><time>2026-04-25T13:23:54Z</time></trkpt><trkpt lat="43.66296789818374" lon="11.87431106542837"><ele>475.25</ele><time>2026-04-25T13:23:55Z</time></trkpt><trkpt lat="43.66309639245014" lon="11.874383914593341"><ele>472.0</ele><time>2026-04-25T13:23:56Z</time></trkpt><trkpt lat="43.66324912914236" lon="11.874448353659716"><ele>472.0</ele><time>2026-04-25T13:23:57Z</time></trkpt><trkpt lat="43.66339357890126" lon="11.874538670341753"><ele>472.0</ele><time>2026-04-25T13:23:58Z</time></trkpt><trkpt lat="43.66353789036658" lon="11.874622020607703"><ele>472.0</ele><time>2026-04-25T13:23:59Z</time></trkpt><trkpt lat="43.66367895770829" lon="11.874698993881724"><ele>468.5</ele><time>2026-04-25T13:24:00Z</time></trkpt><trkpt lat="43.66380804197724" lon="11.874763171065053"><ele>465.0</ele><time>2026-04-25T13:24:01Z</time></trkpt><trkpt lat="43.66393724624825" lon="11.8748089535161"><ele>461.5</ele><time>2026-04-25T13:24:02Z</time></trkpt><trkpt lat="43.6640811477069" lon="11.874815006285873"><ele>458.0</ele><time>2026-04-25T13:24:03Z</time></trkpt><trkpt lat="43.66423748144086" lon="11.874778491505712"><ele>458.0</ele><time>2026-04-25T13:24:04Z</time></trkpt><trkpt lat="43.66439609751901" lon="11.874738719139156"><ele>458.0</ele><time>2026-04-25T13:24:05Z</time></trkpt><trkpt lat="43.66454233163743" lon="11.874710352007643"><ele>458.0</ele><time>2026-04-25T13:24:06Z</time></trkpt><trkpt lat="43.66468685590223" lon="11.874706266941667"><ele>457.75</ele><time>2026-04-25T13:24:07Z</time></trkpt><trkpt lat="43.664824674372355" lon="11.874664016290879"><ele>457.5</ele><time>2026-04-25T13:24:08Z</time></trkpt><trkpt lat="43.66496687736436" lon="11.874654641814866"><ele>457.25</ele><time>2026-04-25T13:24:09Z</time></trkpt><trkpt lat="43.665111739940684" lon="11.874686269427638"><ele>457.0</ele><time>2026-04-25T13:24:10Z</time></trkpt><trkpt lat="43.66523094219262" lon="11.874713858408633"><ele>454.5</ele><time>2026-04-25T13:24:11Z</time></trkpt><trkpt lat="43.66535620018369" lon="11.874753756789639"><ele>452.0</ele><time>2026-04-25T13:24:12Z</time></trkpt><trkpt lat="43.66549313887342" lon="11.874782072311188"><ele>449.5</ele><time>2026-04-25T13:24:13Z</time></trkpt><trkpt lat="43.66562723942123" lon="11.874829176594329"><ele>447.0</ele><time>2026-04-25T13:24:14Z</time></trkpt><trkpt lat="43.66575078314178" lon="11.874875755085469"><ele>447.0</ele><time>2026-04-25T13:24:15Z</time></trkpt><trkpt lat="43.66587017865407" lon="11.874910538948335"><ele>447.00000000000006</ele><time>2026-04-25T13:24:16Z</time></trkpt><trkpt lat="43.66598353832305" lon="11.874953540339916"><ele>447.00000000000006</ele><time>2026-04-25T13:24:17Z</time></trkpt><trkpt lat="43.666079757985685" lon="11.875007186251079"><ele>447.0</ele><time>2026-04-25T13:24:18Z</time></trkpt><trkpt lat="43.66614462869863" lon="11.87507745507123"><ele>447.0</ele><time>2026-04-25T13:24:19Z</time></trkpt><trkpt lat="43.66617463508664" lon="11.875185163381031"><ele>443.75</ele><time>2026-04-25T13:24:20Z</time></trkpt><trkpt lat="43.66618094212417" lon="11.875336062552199"><ele>440.5</ele><time>2026-04-25T13:24:21Z</time></trkpt><trkpt lat="43.6661509888478" lon="11.875527833777209"><ele>437.25</ele><time>2026-04-25T13:24:22Z</time></trkpt><trkpt lat="43.666158550633206" lon="11.875717120558226"><ele>434.0</ele><time>2026-04-25T13:24:23Z</time></trkpt><trkpt lat="43.6661812698367" lon="11.875894053963023"><ele>435.25</ele><time>2026-04-25T13:24:24Z</time></trkpt><trkpt lat="43.66624201560746" lon="11.876068456708062"><ele>436.5</ele><time>2026-04-25T13:24:25Z</time></trkpt><trkpt lat="43.6662978380282" lon="11.876240832876604"><ele>437.75</ele><time>2026-04-25T13:24:26Z</time></trkpt><trkpt lat="43.66635164964802" lon="11.876402971154508"><ele>439.0</ele><time>2026-04-25T13:24:27Z</time></trkpt><trkpt lat="43.66640668943065" lon="11.876552146977398"><ele>439.0</ele><time>2026-04-25T13:24:28Z</time></trkpt><trkpt lat="43.666452047553406" lon="11.876700575186675"><ele>439.0</ele><time>2026-04-25T13:24:29Z</time></trkpt><trkpt lat="43.66654301153924" lon="11.876786478424734"><ele>439.0</ele><time>2026-04-25T13:24:30Z</time></trkpt><trkpt lat="43.66665122490131" lon="11.876828153134817"><ele>439.0</ele><time>2026-04-25T13:24:31Z</time></trkpt><trkpt lat="43.66677759504886" lon="11.876868048916824"><ele>438.5</ele><time>2026-04-25T13:24:32Z</time></trkpt><trkpt lat="43.66691212797408" lon="11.876892565384821"><ele>438.0</ele><time>2026-04-25T13:24:33Z</time></trkpt><trkpt lat="43.6670503189669" lon="11.876894229535976"><ele>437.5</ele><time>2026-04-25T13:24:34Z</time></trkpt><trkpt lat="43.66717880465263" lon="11.87691268297794"><ele>437.0</ele><time>2026-04-25T13:24:35Z</time></trkpt><trkpt lat="43.66729891094588" lon="11.876952868519682"><ele>437.0</ele><time>2026-04-25T13:24:36Z</time></trkpt><trkpt lat="43.66740831999713" lon="11.876949089023709"><ele>437.00000000000006</ele><time>2026-04-25T13:24:37Z</time></trkpt><trkpt lat="43.667503695530854" lon="11.876985191725007"><ele>437.00000000000006</ele><time>2026-04-25T13:24:38Z</time></trkpt><trkpt lat="43.667596747845856" lon="11.876985335011355"><ele>437.0</ele><time>2026-04-25T13:24:39Z</time></trkpt><trkpt lat="43.6676734507905" lon="11.87692417740767"><ele>437.0</ele><time>2026-04-25T13:24:40Z</time></trkpt><trkpt lat="43.667708754264524" lon="11.87680429906785"><ele>436.6</ele><time>2026-04-25T13:24:41Z</time></trkpt><trkpt lat="43.66769775980417" lon="11.876664954525955"><ele>436.20000000000005</ele><time>2026-04-25T13:24:42Z</time></trkpt><trkpt lat="43.66771674506906" lon="11.876532016542926"><ele>435.8</ele><time>2026-04-25T13:24:44Z</time></trkpt><trkpt lat="43.66771228597187" lon="11.876402989846712"><ele>435.4</ele><time>2026-04-25T13:24:45Z</time></trkpt><trkpt lat="43.66771053936346" lon="11.87626928472623"><ele>435.0</ele><time>2026-04-25T13:24:46Z</time></trkpt><trkpt lat="43.667704342461924" lon="11.87605842673348"><ele>435.0</ele><time>2026-04-25T13:24:47Z</time></trkpt><trkpt lat="43.667717347538265" lon="11.875947482405804"><ele>435.0</ele><time>2026-04-25T13:24:48Z</time></trkpt><trkpt lat="43.667792269620286" lon="11.875779291164864"><ele>435.0</ele><time>2026-04-25T13:24:50Z</time></trkpt><trkpt lat="43.667861977167355" lon="11.875651291135597"><ele>435.0</ele><time>2026-04-25T13:24:51Z</time></trkpt><trkpt lat="43.66838934824136" lon="11.875887256585116"><ele>438.0</ele><time>2026-04-25T13:24:52Z</time></trkpt><trkpt lat="43.66846158329318" lon="11.875760165366824"><ele>441.0</ele><time>2026-04-25T13:24:53Z</time></trkpt><trkpt lat="43.66852161603856" lon="11.875665977242104"><ele>444.0</ele><time>2026-04-25T13:24:54Z</time></trkpt><trkpt lat="43.668575392269" lon="11.875756059762356"><ele>447.0</ele><time>2026-04-25T13:24:57Z</time></trkpt><trkpt lat="43.66854632384528" lon="11.875895397420038"><ele>450.0</ele><time>2026-04-25T13:24:58Z</time></trkpt><trkpt lat="43.66851667446595" lon="11.876044268083843"><ele>450.0</ele><time>2026-04-25T13:24:59Z</time></trkpt><trkpt lat="43.668534855197834" lon="11.876153261310645"><ele>450.0</ele><time>2026-04-25T13:25:00Z</time></trkpt><trkpt lat="43.66859261710968" lon="11.876187975513835"><ele>450.0</ele><time>2026-04-25T13:25:01Z</time></trkpt><trkpt lat="43.668680502621015" lon="11.876149352610023"><ele>450.0</ele><time>2026-04-25T13:25:02Z</time></trkpt><trkpt lat="43.66874886269106" lon="11.876053751950607"><ele>450.0</ele><time>2026-04-25T13:25:03Z</time></trkpt><trkpt lat="43.66883009209003" lon="11.875943833764248"><ele>450.0</ele><time>2026-04-25T13:25:04Z</time></trkpt><trkpt lat="43.66891961362703" lon="11.87583463466257"><ele>453.2</ele><time>2026-04-25T13:25:05Z</time></trkpt><trkpt lat="43.66900016918391" lon="11.875710561831605"><ele>456.4</ele><time>2026-04-25T13:25:06Z</time></trkpt><trkpt lat="43.66905295813802" lon="11.875617356706622"><ele>459.6</ele><time>2026-04-25T13:25:07Z</time></trkpt><trkpt lat="43.66912916246223" lon="11.875536226009247"><ele>462.8</ele><time>2026-04-25T13:25:09Z</time></trkpt><trkpt lat="43.66918932927605" lon="11.875473839917861"><ele>466.0</ele><time>2026-04-25T13:25:10Z</time></trkpt><trkpt lat="43.66927381934918" lon="11.875377101002126"><ele>466.0</ele><time>2026-04-25T13:25:11Z</time></trkpt><trkpt lat="43.66937395277981" lon="11.875257502961395"><ele>466.0</ele><time>2026-04-25T13:25:12Z</time></trkpt><trkpt lat="43.669478008792574" lon="11.87514322616985"><ele>466.0</ele><time>2026-04-25T13:25:13Z</time></trkpt><trkpt lat="43.66957269307373" lon="11.875013094266093"><ele>466.0</ele><time>2026-04-25T13:25:14Z</time></trkpt><trkpt lat="43.669646903174396" lon="11.87485868149751"><ele>470.0</ele><time>2026-04-25T13:25:15Z</time></trkpt><trkpt lat="43.669706706238976" lon="11.874686191440889"><ele>474.0</ele><time>2026-04-25T13:25:16Z</time></trkpt><trkpt lat="43.66975734317973" lon="11.874510669443119"><ele>478.0</ele><time>2026-04-25T13:25:17Z</time></trkpt><trkpt lat="43.66979840317562" lon="11.874353157266361"><ele>482.0</ele><time>2026-04-25T13:25:18Z</time></trkpt><trkpt lat="43.669843077227554" lon="11.874218689047304"><ele>482.6</ele><time>2026-04-25T13:25:19Z</time></trkpt><trkpt lat="43.66987752732312" lon="11.87407733895656"><ele>483.20000000000005</ele><time>2026-04-25T13:25:20Z</time></trkpt><trkpt lat="43.669876417901314" lon="11.873934823518235"><ele>483.8</ele><time>2026-04-25T13:25:21Z</time></trkpt><trkpt lat="43.6698361087383" lon="11.873789497256837"><ele>484.4</ele><time>2026-04-25T13:25:22Z</time></trkpt><trkpt lat="43.66976353991264" lon="11.873672802010084"><ele>485.0</ele><time>2026-04-25T13:25:23Z</time></trkpt><trkpt lat="43.6696528009911" lon="11.873608119651117"><ele>485.0</ele><time>2026-04-25T13:25:24Z</time></trkpt><trkpt lat="43.66952705944804" lon="11.873562640543893"><ele>485.0</ele><time>2026-04-25T13:25:25Z</time></trkpt><trkpt lat="43.66940427635107" lon="11.873505323205729"><ele>485.0</ele><time>2026-04-25T13:25:26Z</time></trkpt><trkpt lat="43.669288944831024" lon="11.873442778954907"><ele>485.0</ele><time>2026-04-25T13:25:27Z</time></trkpt><trkpt lat="43.669169848877964" lon="11.873392861687648"><ele>485.4</ele><time>2026-04-25T13:25:28Z</time></trkpt><trkpt lat="43.66905799704246" lon="11.87334072398704"><ele>485.8</ele><time>2026-04-25T13:25:29Z</time></trkpt><trkpt lat="43.668964159936515" lon="11.873290909137843"><ele>486.20000000000005</ele><time>2026-04-25T13:25:30Z</time></trkpt><trkpt lat="43.66888543984993" lon="11.873223256298028"><ele>486.6</ele><time>2026-04-25T13:25:31Z</time></trkpt><trkpt lat="43.668827158780296" lon="11.873149463384307"><ele>487.0</ele><time>2026-04-25T13:25:32Z</time></trkpt><trkpt lat="43.668811681563945" lon="11.873036681992007"><ele>487.0</ele><time>2026-04-25T13:25:33Z</time></trkpt><trkpt lat="43.66884264621315" lon="11.872931853897743"><ele>487.00000000000006</ele><time>2026-04-25T13:25:34Z</time></trkpt><trkpt lat="43.66891265924639" lon="11.872863818709309"><ele>487.00000000000006</ele><time>2026-04-25T13:25:35Z</time></trkpt><trkpt lat="43.6690143992835" lon="11.872802766437506"><ele>487.0</ele><time>2026-04-25T13:25:36Z</time></trkpt><trkpt lat="43.66911702235003" lon="11.872745967316305"><ele>487.0</ele><time>2026-04-25T13:25:37Z</time></trkpt><trkpt lat="43.66922171499356" lon="11.872669683494049"><ele>488.75</ele><time>2026-04-25T13:25:38Z</time></trkpt><trkpt lat="43.66933958785472" lon="11.872586002619606"><ele>490.5</ele><time>2026-04-25T13:25:39Z</time></trkpt><trkpt lat="43.669459798867635" lon="11.872505713679148"><ele>492.25</ele><time>2026-04-25T13:25:40Z</time></trkpt><trkpt lat="43.669581147901035" lon="11.87242673742407"><ele>494.0</ele><time>2026-04-25T13:25:41Z</time></trkpt><trkpt lat="43.66970457278576" lon="11.87234710691902"><ele>496.0</ele><time>2026-04-25T13:25:42Z</time></trkpt><trkpt lat="43.66982948744126" lon="11.872287190730011"><ele>498.0</ele><time>2026-04-25T13:25:43Z</time></trkpt><trkpt lat="43.66995590850023" lon="11.872258153455707"><ele>500.0</ele><time>2026-04-25T13:25:44Z</time></trkpt><trkpt lat="43.67008368373226" lon="11.872233583307679"><ele>502.0</ele><time>2026-04-25T13:25:45Z</time></trkpt><trkpt lat="43.67021534179476" lon="11.872188804195206"><ele>505.8</ele><time>2026-04-25T13:25:46Z</time></trkpt><trkpt lat="43.670288893259894" lon="11.872160130631714"><ele>509.6</ele><time>2026-04-25T13:25:47Z</time></trkpt><trkpt lat="43.670371256320266" lon="11.87229297121268"><ele>513.4000000000001</ele><time>2026-04-25T13:25:49Z</time></trkpt><trkpt lat="43.67045604680015" lon="11.872416680720367"><ele>517.2</ele><time>2026-04-25T13:25:50Z</time></trkpt><trkpt lat="43.67054597893304" lon="11.872468370024206"><ele>521.0</ele><time>2026-04-25T13:25:51Z</time></trkpt><trkpt lat="43.67066087365303" lon="11.8725001051148"><ele>521.0</ele><time>2026-04-25T13:25:52Z</time></trkpt><trkpt lat="43.67079675832804" lon="11.872498239583996"><ele>521.0</ele><time>2026-04-25T13:25:53Z</time></trkpt><trkpt lat="43.67088785735953" lon="11.872500240553302"><ele>521.0</ele><time>2026-04-25T13:25:54Z</time></trkpt><trkpt lat="43.67099250720687" lon="11.872474566090574"><ele>521.0</ele><time>2026-04-25T13:25:55Z</time></trkpt><trkpt lat="43.67111698861869" lon="11.87250038577563"><ele>525.6</ele><time>2026-04-25T13:25:56Z</time></trkpt><trkpt lat="43.67125296060269" lon="11.87239713487134"><ele>530.2</ele><time>2026-04-25T13:25:57Z</time></trkpt><trkpt lat="43.671351189493656" lon="11.87236904787691"><ele>534.8</ele><time>2026-04-25T13:25:58Z</time></trkpt><trkpt lat="43.67141793071996" lon="11.872295986404305"><ele>539.4</ele><time>2026-04-25T13:26:00Z</time></trkpt><trkpt lat="43.67142985021054" lon="11.872156429234538"><ele>544.0</ele><time>2026-04-25T13:26:02Z</time></trkpt><trkpt lat="43.67149850042951" lon="11.872152996903974"><ele>544.0</ele><time>2026-04-25T13:26:04Z</time></trkpt><trkpt lat="43.67157437194351" lon="11.872133074672814"><ele>544.0</ele><time>2026-04-25T13:26:07Z</time></trkpt><trkpt lat="43.67167820343934" lon="11.872138251831739"><ele>544.0</ele><time>2026-04-25T13:26:09Z</time></trkpt><trkpt lat="43.67175439086833" lon="11.87216549138151"><ele>544.0</ele><time>2026-04-25T13:26:12Z</time></trkpt><trkpt lat="43.671839777129236" lon="11.872157156808191"><ele>544.0</ele><time>2026-04-25T13:26:25Z</time></trkpt><trkpt lat="43.67189496128865" lon="11.872050846130161"><ele>544.0</ele><time>2026-04-25T13:26:28Z</time></trkpt><trkpt lat="43.67196429218896" lon="11.872005800020213"><ele>569.0</ele><time>2026-04-25T13:26:30Z</time></trkpt></trkseg><trkseg><trkpt lat="43.67492176580524" lon="11.872050488664177"><ele>613.0</ele><time>2026-04-25T13:38:03Z</time></trkpt><trkpt lat="43.674895879340504" lon="11.871938800047303"><ele>613.0</ele><time>2026-04-25T13:38:17Z</time></trkpt><trkpt lat="43.67483428116148" lon="11.871881491230658"><ele>613.0</ele><time>2026-04-25T13:38:28Z</time></trkpt><trkpt lat="43.674797106241215" lon="11.871803975823994"><ele>613.0</ele><time>2026-04-25T13:38:29Z</time></trkpt><trkpt lat="43.67475610493333" lon="11.871720642259213"><ele>613.0</ele><time>2026-04-25T13:38:31Z</time></trkpt><trkpt lat="43.67473815670442" lon="11.87160161816999"><ele>613.0</ele><time>2026-04-25T13:38:41Z</time></trkpt><trkpt lat="43.67469112215651" lon="11.871485609422711"><ele>612.6666666666667</ele><time>2026-04-25T13:38:43Z</time></trkpt><trkpt lat="43.67464420457851" lon="11.871357811721442"><ele>612.3333333333334</ele><time>2026-04-25T13:38:45Z</time></trkpt><trkpt lat="43.67460415242263" lon="11.87128093298156"><ele>612.0</ele><time>2026-04-25T13:38:47Z</time></trkpt><trkpt lat="43.67464069620791" lon="11.871190541461942"><ele>611.6666666666666</ele><time>2026-04-25T13:38:49Z</time></trkpt><trkpt lat="43.67465920033534" lon="11.87105167294823"><ele>611.3333333333333</ele><time>2026-04-25T13:38:51Z</time></trkpt><trkpt lat="43.67464737629573" lon="11.870931770926962"><ele>611.0</ele><time>2026-04-25T13:38:53Z</time></trkpt><trkpt lat="43.674628736315675" lon="11.870835177217552"><ele>612.6</ele><time>2026-04-25T13:38:55Z</time></trkpt><trkpt lat="43.67461486666879" lon="11.870731413403131"><ele>614.2</ele><time>2026-04-25T13:38:59Z</time></trkpt><trkpt lat="43.6745945936816" lon="11.870598090405693"><ele>615.8</ele><time>2026-04-25T13:39:01Z</time></trkpt><trkpt lat="43.67453543590356" lon="11.870515575637922"><ele>617.4</ele><time>2026-04-25T13:39:02Z</time></trkpt><trkpt lat="43.67454878810727" lon="11.870386363022616"><ele>619.0</ele><time>2026-04-25T13:39:04Z</time></trkpt><trkpt lat="43.67455835388213" lon="11.870233381587532"><ele>619.0</ele><time>2026-04-25T13:39:06Z</time></trkpt><trkpt lat="43.6746115407174" lon="11.870143427419812"><ele>619.0</ele><time>2026-04-25T13:39:08Z</time></trkpt><trkpt lat="43.674600592866156" lon="11.870038612220547"><ele>619.0</ele><time>2026-04-25T13:39:10Z</time></trkpt><trkpt lat="43.6745227808613" lon="11.869760800607057"><ele>619.0</ele><time>2026-04-25T13:39:13Z</time></trkpt><trkpt lat="43.67444388209135" lon="11.869689135684053"><ele>624.8</ele><time>2026-04-25T13:39:16Z</time></trkpt><trkpt lat="43.67440592960344" lon="11.869615214755573"><ele>630.5999999999999</ele><time>2026-04-25T13:39:17Z</time></trkpt><trkpt lat="43.67436709678917" lon="11.869473023738378"><ele>636.4</ele><time>2026-04-25T13:39:19Z</time></trkpt><trkpt lat="43.67437402846838" lon="11.869314787911716"><ele>642.1999999999999</ele><time>2026-04-25T13:39:21Z</time></trkpt><trkpt lat="43.67440095438428" lon="11.86915477664788"><ele>648.0</ele><time>2026-04-25T13:39:23Z</time></trkpt><trkpt lat="43.67433072946441" lon="11.869011653678163"><ele>651.8333333333334</ele><time>2026-04-25T13:39:25Z</time></trkpt><trkpt lat="43.67427459284156" lon="11.868960097033995"><ele>655.6666666666666</ele><time>2026-04-25T13:39:26Z</time></trkpt><trkpt lat="43.67416988764695" lon="11.868939457273996"><ele>659.5</ele><time>2026-04-25T13:39:28Z</time></trkpt><trkpt lat="43.67406356710722" lon="11.868962873783316"><ele>663.3333333333333</ele><time>2026-04-25T13:39:30Z</time></trkpt><trkpt lat="43.67399584001295" lon="11.86891384037868"><ele>667.1666666666666</ele><time>2026-04-25T13:39:32Z</time></trkpt><trkpt lat="43.67390726335452" lon="11.868943369880434"><ele>671.0</ele><time>2026-04-25T13:39:33Z</time></trkpt><trkpt lat="43.67383122068645" lon="11.868865522403375"><ele>671.0</ele><time>2026-04-25T13:39:35Z</time></trkpt><trkpt lat="43.673743061396" lon="11.86887356374985"><ele>671.0</ele><time>2026-04-25T13:39:36Z</time></trkpt><trkpt lat="43.67362639258423" lon="11.868909930661085"><ele>671.0</ele><time>2026-04-25T13:39:37Z</time></trkpt><trkpt lat="43.67348293198551" lon="11.868950797704034"><ele>671.0</ele><time>2026-04-25T13:39:38Z</time></trkpt><trkpt lat="43.6733751680488" lon="11.868984852447054"><ele>672.5</ele><time>2026-04-25T13:39:39Z</time></trkpt><trkpt lat="43.673306594396735" lon="11.868992972792006"><ele>674.0</ele><time>2026-04-25T13:39:40Z</time></trkpt><trkpt lat="43.673224044122676" lon="11.868928931341223"><ele>675.5</ele><time>2026-04-25T13:39:42Z</time></trkpt><trkpt lat="43.67313597721555" lon="11.868907016874944"><ele>677.0</ele><time>2026-04-25T13:39:44Z</time></trkpt><trkpt lat="43.67307658438004" lon="11.868943400191428"><ele>678.5</ele><time>2026-04-25T13:39:45Z</time></trkpt><trkpt lat="43.673017158032245" lon="11.868989860749894"><ele>680.0</ele><time>2026-04-25T13:39:46Z</time></trkpt><trkpt lat="43.6729538357713" lon="11.868985410416022"><ele>680.0</ele><time>2026-04-25T13:39:47Z</time></trkpt><trkpt lat="43.67286190562782" lon="11.868960378828897"><ele>680.0</ele><time>2026-04-25T13:39:49Z</time></trkpt><trkpt lat="43.67279854985113" lon="11.868918021675807"><ele>680.0</ele><time>2026-04-25T13:39:50Z</time></trkpt><trkpt lat="43.67272643129792" lon="11.868934758029104"><ele>680.0</ele><time>2026-04-25T13:39:52Z</time></trkpt><trkpt lat="43.67265379685585" lon="11.868943827268652"><ele>680.0</ele><time>2026-04-25T13:39:53Z</time></trkpt><trkpt lat="43.67256185081882" lon="11.868898139307683"><ele>680.0</ele><time>2026-04-25T13:39:54Z</time></trkpt><trkpt lat="43.67246283774847" lon="11.86884205576983"><ele>681.0</ele><time>2026-04-25T13:39:55Z</time></trkpt><trkpt lat="43.67234239648333" lon="11.868827327966327"><ele>682.0</ele><time>2026-04-25T13:39:56Z</time></trkpt><trkpt lat="43.67225296799475" lon="11.868807392179344"><ele>683.0</ele><time>2026-04-25T13:39:57Z</time></trkpt><trkpt lat="43.67216357208833" lon="11.868746537442359"><ele>684.0</ele><time>2026-04-25T13:39:58Z</time></trkpt><trkpt lat="43.67207779792641" lon="11.868675790305401"><ele>685.0</ele><time>2026-04-25T13:39:59Z</time></trkpt><trkpt lat="43.67199077747237" lon="11.86866871789453"><ele>682.4</ele><time>2026-04-25T13:40:00Z</time></trkpt><trkpt lat="43.67189737750628" lon="11.868694363895598"><ele>679.8</ele><time>2026-04-25T13:40:01Z</time></trkpt><trkpt lat="43.67182583421576" lon="11.868691195009445"><ele>677.2</ele><time>2026-04-25T13:40:02Z</time></trkpt><trkpt lat="43.671764707361" lon="11.868608569160225"><ele>674.6</ele><time>2026-04-25T13:40:03Z</time></trkpt><trkpt lat="43.671679854847206" lon="11.868507770587781"><ele>672.0</ele><time>2026-04-25T13:40:04Z</time></trkpt><trkpt lat="43.67157127891363" lon="11.868458855207086"><ele>675.0</ele><time>2026-04-25T13:40:05Z</time></trkpt><trkpt lat="43.6714454072768" lon="11.868395730699923"><ele>678.0</ele><time>2026-04-25T13:40:06Z</time></trkpt><trkpt lat="43.67135933945893" lon="11.86832778828655"><ele>681.0</ele><time>2026-04-25T13:40:07Z</time></trkpt><trkpt lat="43.67128677938236" lon="11.868222314074695"><ele>684.0</ele><time>2026-04-25T13:40:08Z</time></trkpt><trkpt lat="43.6712092136209" lon="11.868093594883364"><ele>684.0</ele><time>2026-04-25T13:40:09Z</time></trkpt><trkpt lat="43.67113576755257" lon="11.868016090913883"><ele>684.0</ele><time>2026-04-25T13:40:10Z</time></trkpt><trkpt lat="43.671015284898594" lon="11.86794498791209"><ele>684.0</ele><time>2026-04-25T13:40:12Z</time></trkpt><trkpt lat="43.67095034329651" lon="11.867868167102303"><ele>684.0</ele><time>2026-04-25T13:40:13Z</time></trkpt><trkpt lat="43.6708840202686" lon="11.867778458215108"><ele>684.0</ele><time>2026-04-25T13:40:14Z</time></trkpt><trkpt lat="43.67078717077411" lon="11.867700263014463"><ele>683.4000000000001</ele><time>2026-04-25T13:40:15Z</time></trkpt><trkpt lat="43.670674309980974" lon="11.86764390244654"><ele>682.8</ele><time>2026-04-25T13:40:16Z</time></trkpt><trkpt lat="43.67058800704653" lon="11.867603696838705"><ele>682.2</ele><time>2026-04-25T13:40:17Z</time></trkpt><trkpt lat="43.67051255573631" lon="11.867554410990122"><ele>681.5999999999999</ele><time>2026-04-25T13:40:18Z</time></trkpt><trkpt lat="43.67044615170639" lon="11.867487314241348"><ele>681.0</ele><time>2026-04-25T13:40:19Z</time></trkpt><trkpt lat="43.670376944892055" lon="11.8674150041571"><ele>682.3333333333334</ele><time>2026-04-25T13:40:20Z</time></trkpt><trkpt lat="43.670324159194124" lon="11.86732916828445"><ele>683.6666666666666</ele><time>2026-04-25T13:40:21Z</time></trkpt><trkpt lat="43.67027405580137" lon="11.867244594091089"><ele>685.0</ele><time>2026-04-25T13:40:22Z</time></trkpt><trkpt lat="43.67021696358803" lon="11.867194387507052"><ele>686.3333333333333</ele><time>2026-04-25T13:40:23Z</time></trkpt><trkpt lat="43.670130041495334" lon="11.86714816163425"><ele>687.6666666666666</ele><time>2026-04-25T13:40:24Z</time></trkpt><trkpt lat="43.670032867417255" lon="11.867070873059737"><ele>689.0</ele><time>2026-04-25T13:40:25Z</time></trkpt><trkpt lat="43.66992660971092" lon="11.866955557736697"><ele>691.2</ele><time>2026-04-25T13:40:26Z</time></trkpt><trkpt lat="43.669811739323926" lon="11.866867799763986"><ele>693.4000000000001</ele><time>2026-04-25T13:40:27Z</time></trkpt><trkpt lat="43.66970488618834" lon="11.866805428937095"><ele>695.6</ele><time>2026-04-25T13:40:29Z</time></trkpt><trkpt lat="43.669683148797006" lon="11.866688619108395"><ele>697.8</ele><time>2026-04-25T13:40:31Z</time></trkpt><trkpt lat="43.669614735873644" lon="11.866607624543681"><ele>700.0</ele><time>2026-04-25T13:40:33Z</time></trkpt><trkpt lat="43.66954914215878" lon="11.866502353789887"><ele>700.1666666666667</ele><time>2026-04-25T13:40:35Z</time></trkpt><trkpt lat="43.66952701469214" lon="11.866418280799564"><ele>700.3333333333334</ele><time>2026-04-25T13:40:38Z</time></trkpt><trkpt lat="43.66946480323906" lon="11.866322894079596"><ele>700.5</ele><time>2026-04-25T13:40:40Z</time></trkpt><trkpt lat="43.66940482002773" lon="11.866245423151252"><ele>700.6666666666666</ele><time>2026-04-25T13:40:41Z</time></trkpt><trkpt lat="43.66934808369958" lon="11.866147906492714"><ele>700.8333333333333</ele><time>2026-04-25T13:40:42Z</time></trkpt><trkpt lat="43.669299089010245" lon="11.866013808044464"><ele>701.0</ele><time>2026-04-25T13:40:43Z</time></trkpt><trkpt lat="43.6692387391025" lon="11.865931048619075"><ele>701.8333333333333</ele><time>2026-04-25T13:40:44Z</time></trkpt><trkpt lat="43.6691691244802" lon="11.865843997950257"><ele>702.6666666666666</ele><time>2026-04-25T13:40:45Z</time></trkpt><trkpt lat="43.66909853154386" lon="11.865777714951413"><ele>703.5</ele><time>2026-04-25T13:40:46Z</time></trkpt><trkpt lat="43.669032060877406" lon="11.865723210467355"><ele>704.3333333333334</ele><time>2026-04-25T13:40:47Z</time></trkpt><trkpt lat="43.668961690295255" lon="11.865719614133772"><ele>705.1666666666667</ele><time>2026-04-25T13:40:48Z</time></trkpt><trkpt lat="43.6688701323919" lon="11.865720444968016"><ele>706.0</ele><time>2026-04-25T13:40:49Z</time></trkpt><trkpt lat="43.66880348901482" lon="11.865674186154886"><ele>706.0</ele><time>2026-04-25T13:40:50Z</time></trkpt><trkpt lat="43.66872027243837" lon="11.865631725106137"><ele>706.0</ele><time>2026-04-25T13:40:51Z</time></trkpt><trkpt lat="43.66860931419813" lon="11.865615263170772"><ele>706.0</ele><time>2026-04-25T13:40:52Z</time></trkpt><trkpt lat="43.66848874187635" lon="11.865608105826599"><ele>706.0</ele><time>2026-04-25T13:40:53Z</time></trkpt><trkpt lat="43.668367513008775" lon="11.865592500288155"><ele>706.0</ele><time>2026-04-25T13:40:54Z</time></trkpt><trkpt lat="43.66830005840792" lon="11.865533175526608"><ele>705.8333333333334</ele><time>2026-04-25T13:40:55Z</time></trkpt><trkpt lat="43.66826989778581" lon="11.86544512579851"><ele>705.6666666666667</ele><time>2026-04-25T13:40:56Z</time></trkpt><trkpt lat="43.66817466337256" lon="11.865368796266736"><ele>705.5</ele><time>2026-04-25T13:40:58Z</time></trkpt><trkpt lat="43.66808609515153" lon="11.86536191329161"><ele>705.3333333333334</ele><time>2026-04-25T13:40:59Z</time></trkpt><trkpt lat="43.66802374437667" lon="11.865311142287231"><ele>705.1666666666666</ele><time>2026-04-25T13:41:00Z</time></trkpt><trkpt lat="43.66796239764221" lon="11.865229927437232"><ele>705.0</ele><time>2026-04-25T13:41:01Z</time></trkpt><trkpt lat="43.66787887053805" lon="11.865139931078454"><ele>708.6</ele><time>2026-04-25T13:41:02Z</time></trkpt><trkpt lat="43.667771749111445" lon="11.865092437324671"><ele>712.2</ele><time>2026-04-25T13:41:03Z</time></trkpt><trkpt lat="43.66765268564107" lon="11.865079593120235"><ele>715.8</ele><time>2026-04-25T13:41:04Z</time></trkpt><trkpt lat="43.66759877809284" lon="11.865018118890356"><ele>719.4</ele><time>2026-04-25T13:41:05Z</time></trkpt><trkpt lat="43.667538111381035" lon="11.864889335730226"><ele>723.0</ele><time>2026-04-25T13:41:06Z</time></trkpt><trkpt lat="43.66747910870879" lon="11.86472039626735"><ele>723.0</ele><time>2026-04-25T13:41:07Z</time></trkpt><trkpt lat="43.66743191955975" lon="11.86462858183429"><ele>723.0</ele><time>2026-04-25T13:41:08Z</time></trkpt><trkpt lat="43.66733686445708" lon="11.864584696952383"><ele>723.0</ele><time>2026-04-25T13:41:09Z</time></trkpt><trkpt lat="43.667271417605946" lon="11.864557831517306"><ele>723.0</ele><time>2026-04-25T13:41:10Z</time></trkpt><trkpt lat="43.66725764178669" lon="11.864462194199554"><ele>723.0</ele><time>2026-04-25T13:41:11Z</time></trkpt><trkpt lat="43.66720906889859" lon="11.864361866493082"><ele>723.0</ele><time>2026-04-25T13:41:12Z</time></trkpt><trkpt lat="43.66702902995561" lon="11.864268362925207"><ele>724.2</ele><time>2026-04-25T13:41:14Z</time></trkpt><trkpt lat="43.66689066034128" lon="11.864198455006944"><ele>725.4</ele><time>2026-04-25T13:41:15Z</time></trkpt><trkpt lat="43.66676741724021" lon="11.864123051444446"><ele>726.6</ele><time>2026-04-25T13:41:16Z</time></trkpt><trkpt lat="43.66667720923235" lon="11.864070344107837"><ele>727.8000000000001</ele><time>2026-04-25T13:41:17Z</time></trkpt><trkpt lat="43.6666389951587" lon="11.863999320518387"><ele>729.0</ele><time>2026-04-25T13:41:18Z</time></trkpt><trkpt lat="43.66661040396334" lon="11.863892159435062"><ele>729.0</ele><time>2026-04-25T13:41:19Z</time></trkpt><trkpt lat="43.66660249920633" lon="11.863778671318785"><ele>729.0</ele><time>2026-04-25T13:41:20Z</time></trkpt><trkpt lat="43.66661769382597" lon="11.86365816804589"><ele>729.0</ele><time>2026-04-25T13:41:21Z</time></trkpt><trkpt lat="43.666645237072196" lon="11.86353598550766"><ele>729.0</ele><time>2026-04-25T13:41:22Z</time></trkpt><trkpt lat="43.6665974142478" lon="11.863426156280966"><ele>729.0</ele><time>2026-04-25T13:41:24Z</time></trkpt><trkpt lat="43.66651465587948" lon="11.863380218267151"><ele>729.0</ele><time>2026-04-25T13:41:25Z</time></trkpt><trkpt lat="43.66648068416892" lon="11.863192106989938"><ele>729.8000000000001</ele><time>2026-04-25T13:41:27Z</time></trkpt><trkpt lat="43.66644858863133" lon="11.86309913900594"><ele>730.6</ele><time>2026-04-25T13:41:28Z</time></trkpt><trkpt lat="43.6664208630875" lon="11.86299701441471"><ele>731.4</ele><time>2026-04-25T13:41:29Z</time></trkpt><trkpt lat="43.666406743983345" lon="11.862858949384586"><ele>732.2</ele><time>2026-04-25T13:41:30Z</time></trkpt><trkpt lat="43.666401188187365" lon="11.862743243405605"><ele>733.0</ele><time>2026-04-25T13:41:31Z</time></trkpt><trkpt lat="43.66650074952437" lon="11.8626434797917"><ele>731.8333333333334</ele><time>2026-04-25T13:41:33Z</time></trkpt><trkpt lat="43.66656532051035" lon="11.862610669387447"><ele>730.6666666666667</ele><time>2026-04-25T13:41:34Z</time></trkpt><trkpt lat="43.66662668329928" lon="11.862575522747454"><ele>729.5</ele><time>2026-04-25T13:41:35Z</time></trkpt><trkpt lat="43.66669932221084" lon="11.862546208032727"><ele>728.3333333333334</ele><time>2026-04-25T13:41:36Z</time></trkpt><trkpt lat="43.66677953326693" lon="11.862501284328486"><ele>727.1666666666666</ele><time>2026-04-25T13:41:37Z</time></trkpt><trkpt lat="43.66685660159363" lon="11.862461439394647"><ele>726.0</ele><time>2026-04-25T13:41:38Z</time></trkpt><trkpt lat="43.66693164913141" lon="11.862426823894435"><ele>724.3333333333334</ele><time>2026-04-25T13:41:39Z</time></trkpt><trkpt lat="43.66701023010432" lon="11.862390360503726"><ele>722.6666666666666</ele><time>2026-04-25T13:41:40Z</time></trkpt><trkpt lat="43.66708502591668" lon="11.862349524464948"><ele>721.0</ele><time>2026-04-25T13:41:41Z</time></trkpt><trkpt lat="43.667154485491686" lon="11.86225143457363"><ele>719.3333333333333</ele><time>2026-04-25T13:41:43Z</time></trkpt><trkpt lat="43.667246584004886" lon="11.862243106255743"><ele>717.6666666666666</ele><time>2026-04-25T13:41:47Z</time></trkpt><trkpt lat="43.6673049743762" lon="11.862286814385005"><ele>716.0</ele><time>2026-04-25T13:41:51Z</time></trkpt><trkpt lat="43.667603428967645" lon="11.862343486357577"><ele>716.0</ele><time>2026-04-25T13:41:52Z</time></trkpt><trkpt lat="43.667664026385324" lon="11.862317116550077"><ele>716.0</ele><time>2026-04-25T13:41:53Z</time></trkpt><trkpt lat="43.66762035355888" lon="11.862229923706"><ele>716.0</ele><time>2026-04-25T13:41:54Z</time></trkpt><trkpt lat="43.66763620618333" lon="11.86208335191999"><ele>716.0</ele><time>2026-04-25T13:41:55Z</time></trkpt><trkpt lat="43.667596670521185" lon="11.861966911086062"><ele>716.0</ele><time>2026-04-25T13:41:56Z</time></trkpt><trkpt lat="43.667709066486154" lon="11.861959615943833"><ele>716.0</ele><time>2026-04-25T13:41:59Z</time></trkpt><trkpt lat="43.6677409477877" lon="11.8621058715651"><ele>716.0</ele><time>2026-04-25T13:42:00Z</time></trkpt><trkpt lat="43.66777104050456" lon="11.862263431899237"><ele>716.0</ele><time>2026-04-25T13:42:01Z</time></trkpt><trkpt lat="43.667797121529375" lon="11.862147689220555"><ele>716.0</ele><time>2026-04-25T13:42:04Z</time></trkpt><trkpt lat="43.667769398720594" lon="11.861962961300359"><ele>716.0</ele><time>2026-04-25T13:42:05Z</time></trkpt><trkpt lat="43.66775581536277" lon="11.86182219659913"><ele>716.0</ele><time>2026-04-25T13:42:07Z</time></trkpt><trkpt lat="43.66783113857404" lon="11.861849778915678"><ele>716.0</ele><time>2026-04-25T13:42:08Z</time></trkpt><trkpt lat="43.66786412347013" lon="11.861998448086764"><ele>716.0</ele><time>2026-04-25T13:42:09Z</time></trkpt><trkpt lat="43.66785201768163" lon="11.862309473972054"><ele>713.8</ele><time>2026-04-25T13:42:10Z</time></trkpt><trkpt lat="43.66789733840914" lon="11.862232206430988"><ele>711.5999999999999</ele><time>2026-04-25T13:42:12Z</time></trkpt><trkpt lat="43.66789083010263" lon="11.862132258530806"><ele>709.4</ele><time>2026-04-25T13:42:13Z</time></trkpt><trkpt lat="43.66785187293292" lon="11.861989389366457"><ele>707.2</ele><time>2026-04-25T13:42:14Z</time></trkpt><trkpt lat="43.66780681018686" lon="11.861738786130218"><ele>705.0</ele><time>2026-04-25T13:42:15Z</time></trkpt><trkpt lat="43.667901495195075" lon="11.861602890608594"><ele>705.0</ele><time>2026-04-25T13:42:17Z</time></trkpt><trkpt lat="43.66798612960611" lon="11.86160046654999"><ele>705.0</ele><time>2026-04-25T13:42:18Z</time></trkpt><trkpt lat="43.66816163525667" lon="11.861657608483386"><ele>705.0</ele><time>2026-04-25T13:42:19Z</time></trkpt><trkpt lat="43.668298763574086" lon="11.86176328325298"><ele>705.0</ele><time>2026-04-25T13:42:20Z</time></trkpt><trkpt lat="43.668491645303575" lon="11.861844059645989"><ele>701.75</ele><time>2026-04-25T13:42:21Z</time></trkpt><trkpt lat="43.668623001006836" lon="11.861886349391256"><ele>698.5</ele><time>2026-04-25T13:42:22Z</time></trkpt><trkpt lat="43.66876488952071" lon="11.861884357991407"><ele>695.25</ele><time>2026-04-25T13:42:23Z</time></trkpt><trkpt lat="43.66884459685288" lon="11.861889983928599"><ele>692.0</ele><time>2026-04-25T13:42:24Z</time></trkpt><trkpt lat="43.6688187340839" lon="11.861738908271466"><ele>692.0</ele><time>2026-04-25T13:42:27Z</time></trkpt><trkpt lat="43.66870282720848" lon="11.861782871658743"><ele>692.0</ele><time>2026-04-25T13:42:29Z</time></trkpt><trkpt lat="43.66859621387238" lon="11.861786482273134"><ele>692.0</ele><time>2026-04-25T13:42:30Z</time></trkpt><trkpt lat="43.668394489663896" lon="11.861761552910714"><ele>692.0</ele><time>2026-04-25T13:42:31Z</time></trkpt><trkpt lat="43.668252208031284" lon="11.861693327061516"><ele>694.75</ele><time>2026-04-25T13:42:32Z</time></trkpt><trkpt lat="43.6681610427252" lon="11.861633239828706"><ele>697.5</ele><time>2026-04-25T13:42:33Z</time></trkpt><trkpt lat="43.66809234747003" lon="11.861432796719491"><ele>700.25</ele><time>2026-04-25T13:42:35Z</time></trkpt><trkpt lat="43.66807546249566" lon="11.861266132523184"><ele>703.0</ele><time>2026-04-25T13:42:36Z</time></trkpt><trkpt lat="43.66810221678446" lon="11.861055467114447"><ele>703.0</ele><time>2026-04-25T13:42:37Z</time></trkpt><trkpt lat="43.668130678319805" lon="11.860869765942452"><ele>703.0</ele><time>2026-04-25T13:42:38Z</time></trkpt><trkpt lat="43.66812812693945" lon="11.860754946183494"><ele>703.0</ele><time>2026-04-25T13:42:39Z</time></trkpt><trkpt lat="43.66804060090835" lon="11.860749947304095"><ele>703.0</ele><time>2026-04-25T13:42:41Z</time></trkpt><trkpt lat="43.667984221169796" lon="11.860843815288401"><ele>703.0</ele><time>2026-04-25T13:42:42Z</time></trkpt><trkpt lat="43.66796871928093" lon="11.861079519238606"><ele>703.0</ele><time>2026-04-25T13:42:43Z</time></trkpt><trkpt lat="43.667957115153385" lon="11.861311365362953"><ele>703.0</ele><time>2026-04-25T13:42:44Z</time></trkpt><trkpt lat="43.66794527664152" lon="11.861482751924957"><ele>703.0</ele><time>2026-04-25T13:42:45Z</time></trkpt><trkpt lat="43.66793196429694" lon="11.861572941721018"><ele>703.0</ele><time>2026-04-25T13:42:46Z</time></trkpt><trkpt lat="43.66786088061908" lon="11.861631064618074"><ele>703.0</ele><time>2026-04-25T13:42:48Z</time></trkpt><trkpt lat="43.66777412084271" lon="11.861480933055553"><ele>703.0</ele><time>2026-04-25T13:42:50Z</time></trkpt><trkpt lat="43.66778955756636" lon="11.861331489665558"><ele>703.0</ele><time>2026-04-25T13:42:51Z</time></trkpt><trkpt lat="43.667868622698734" lon="11.861125298317804"><ele>703.0</ele><time>2026-04-25T13:42:52Z</time></trkpt><trkpt lat="43.66793835592198" lon="11.860930578852962"><ele>703.0</ele><time>2026-04-25T13:42:53Z</time></trkpt><trkpt lat="43.667948995828944" lon="11.86079952118587"><ele>703.2</ele><time>2026-04-25T13:42:54Z</time></trkpt><trkpt lat="43.667919930073" lon="11.860716287911114"><ele>703.4</ele><time>2026-04-25T13:42:55Z</time></trkpt><trkpt lat="43.66785350225442" lon="11.860687754250904"><ele>703.6</ele><time>2026-04-25T13:42:56Z</time></trkpt><trkpt lat="43.667761790680316" lon="11.860795953022976"><ele>703.8000000000001</ele><time>2026-04-25T13:42:58Z</time></trkpt><trkpt lat="43.667743818035845" lon="11.860948221314034"><ele>704.0</ele><time>2026-04-25T13:42:59Z</time></trkpt><trkpt lat="43.66774393342798" lon="11.861159687798084"><ele>705.1666666666666</ele><time>2026-04-25T13:43:00Z</time></trkpt><trkpt lat="43.66773374257607" lon="11.861326832916387"><ele>706.3333333333333</ele><time>2026-04-25T13:43:01Z</time></trkpt><trkpt lat="43.66771496498503" lon="11.861418364814458"><ele>707.5</ele><time>2026-04-25T13:43:02Z</time></trkpt><trkpt lat="43.66763661245169" lon="11.861444577746074"><ele>708.6666666666666</ele><time>2026-04-25T13:43:04Z</time></trkpt><trkpt lat="43.66759337668152" lon="11.861360337902696"><ele>709.8333333333334</ele><time>2026-04-25T13:43:05Z</time></trkpt><trkpt lat="43.667583460044945" lon="11.861218642393363"><ele>711.0</ele><time>2026-04-25T13:43:06Z</time></trkpt><trkpt lat="43.66761863677495" lon="11.861046791161721"><ele>711.5999999999999</ele><time>2026-04-25T13:43:07Z</time></trkpt><trkpt lat="43.66769298928792" lon="11.86083253208216"><ele>712.2</ele><time>2026-04-25T13:43:08Z</time></trkpt><trkpt lat="43.66772378809072" lon="11.86068630143929"><ele>712.8</ele><time>2026-04-25T13:43:09Z</time></trkpt><trkpt lat="43.667709210798705" lon="11.860600094016254"><ele>713.4000000000001</ele><time>2026-04-25T13:43:10Z</time></trkpt><trkpt lat="43.667614500630805" lon="11.86057491571386"><ele>714.0</ele><time>2026-04-25T13:43:12Z</time></trkpt><trkpt lat="43.66755156015639" lon="11.860641666461975"><ele>714.0</ele><time>2026-04-25T13:43:13Z</time></trkpt><trkpt lat="43.66751896476645" lon="11.860787523708415"><ele>714.0</ele><time>2026-04-25T13:43:14Z</time></trkpt><trkpt lat="43.66751037571119" lon="11.860992031479222"><ele>714.0</ele><time>2026-04-25T13:43:15Z</time></trkpt><trkpt lat="43.66748056118551" lon="11.861260094569534"><ele>714.4000000000001</ele><time>2026-04-25T13:43:16Z</time></trkpt><trkpt lat="43.66744704878839" lon="11.861473476187625"><ele>714.8</ele><time>2026-04-25T13:43:17Z</time></trkpt><trkpt lat="43.66743024881799" lon="11.861607046629791"><ele>715.2</ele><time>2026-04-25T13:43:18Z</time></trkpt><trkpt lat="43.66740550879062" lon="11.861702134330075"><ele>715.5999999999999</ele><time>2026-04-25T13:43:19Z</time></trkpt><trkpt lat="43.66735844612629" lon="11.861781328963449"><ele>716.0</ele><time>2026-04-25T13:43:20Z</time></trkpt><trkpt lat="43.66728703426842" lon="11.86186939342723"><ele>716.0</ele><time>2026-04-25T13:43:21Z</time></trkpt><trkpt lat="43.66720665675588" lon="11.861961069715626"><ele>716.0</ele><time>2026-04-25T13:43:22Z</time></trkpt><trkpt lat="43.66714642009431" lon="11.862060998443216"><ele>716.0</ele><time>2026-04-25T13:43:23Z</time></trkpt><trkpt lat="43.66711630607971" lon="11.86216436191642"><ele>716.0</ele><time>2026-04-25T13:43:24Z</time></trkpt><trkpt lat="43.66711622882158" lon="11.86227457331009"><ele>716.0</ele><time>2026-04-25T13:43:25Z</time></trkpt><trkpt lat="43.66709773890363" lon="11.862375474881922"><ele>716.0</ele><time>2026-04-25T13:43:26Z</time></trkpt><trkpt lat="43.667026941751544" lon="11.86243801642935"><ele>719.3333333333333</ele><time>2026-04-25T13:43:27Z</time></trkpt><trkpt lat="43.666904878380755" lon="11.862465374499456"><ele>722.6666666666666</ele><time>2026-04-25T13:43:28Z</time></trkpt><trkpt lat="43.66674396864562" lon="11.862517225035091"><ele>726.0</ele><time>2026-04-25T13:43:29Z</time></trkpt><trkpt lat="43.66658540851359" lon="11.862596883919144"><ele>727.4</ele><time>2026-04-25T13:43:30Z</time></trkpt><trkpt lat="43.66645612195218" lon="11.862669375313068"><ele>728.8</ele><time>2026-04-25T13:43:31Z</time></trkpt><trkpt lat="43.6663911814394" lon="11.862731495905672"><ele>730.1999999999999</ele><time>2026-04-25T13:43:32Z</time></trkpt><trkpt lat="43.66638348861729" lon="11.862879638120177"><ele>731.5999999999999</ele><time>2026-04-25T13:43:34Z</time></trkpt><trkpt lat="43.66642340130135" lon="11.86297897232426"><ele>733.0</ele><time>2026-04-25T13:43:35Z</time></trkpt><trkpt lat="43.66644926650615" lon="11.863076429307194"><ele>733.0</ele><time>2026-04-25T13:43:36Z</time></trkpt><trkpt lat="43.66634723280795" lon="11.863007527475562"><ele>733.0</ele><time>2026-04-25T13:43:40Z</time></trkpt><trkpt lat="43.66628922092616" lon="11.862880103311248"><ele>733.0</ele><time>2026-04-25T13:43:41Z</time></trkpt><trkpt lat="43.66627084015536" lon="11.86275772052659"><ele>733.0</ele><time>2026-04-25T13:43:42Z</time></trkpt><trkpt lat="43.66628051767302" lon="11.862597234698493"><ele>733.0</ele><time>2026-04-25T13:43:43Z</time></trkpt><trkpt lat="43.6662735470593" lon="11.862442977051666"><ele>731.8333333333334</ele><time>2026-04-25T13:43:44Z</time></trkpt><trkpt lat="43.66624796629526" lon="11.86235533440478"><ele>730.6666666666667</ele><time>2026-04-25T13:43:45Z</time></trkpt><trkpt lat="43.66621703610081" lon="11.862262691798223"><ele>729.5</ele><time>2026-04-25T13:43:46Z</time></trkpt><trkpt lat="43.66620089505358" lon="11.862155921676129"><ele>728.3333333333334</ele><time>2026-04-25T13:43:47Z</time></trkpt><trkpt lat="43.66621660673419" lon="11.862026533194484"><ele>727.1666666666666</ele><time>2026-04-25T13:43:48Z</time></trkpt><trkpt lat="43.66621201232769" lon="11.861926070863781"><ele>726.0</ele><time>2026-04-25T13:43:49Z</time></trkpt><trkpt lat="43.66614192747784" lon="11.861896578442794"><ele>727.5999999999999</ele><time>2026-04-25T13:43:50Z</time></trkpt><trkpt lat="43.66603298016651" lon="11.862048438197471"><ele>729.2</ele><time>2026-04-25T13:43:52Z</time></trkpt><trkpt lat="43.66595595633742" lon="11.862115412960168"><ele>730.8</ele><time>2026-04-25T13:43:53Z</time></trkpt><trkpt lat="43.66591572726461" lon="11.861988429509339"><ele>732.4000000000001</ele><time>2026-04-25T13:43:55Z</time></trkpt><trkpt lat="43.665913077779784" lon="11.861893544836692"><ele>734.0</ele><time>2026-04-25T13:43:56Z</time></trkpt><trkpt lat="43.66592165960943" lon="11.861759985159539"><ele>735.8333333333333</ele><time>2026-04-25T13:43:57Z</time></trkpt><trkpt lat="43.6658803035022" lon="11.861616132298801"><ele>737.6666666666666</ele><time>2026-04-25T13:43:59Z</time></trkpt><trkpt lat="43.66581327418751" lon="11.861535390610321"><ele>739.5</ele><time>2026-04-25T13:44:00Z</time></trkpt><trkpt lat="43.66575266706795" lon="11.861471406780769"><ele>741.3333333333334</ele><time>2026-04-25T13:44:01Z</time></trkpt><trkpt lat="43.665728053959214" lon="11.861357528780143"><ele>743.1666666666667</ele><time>2026-04-25T13:44:03Z</time></trkpt><trkpt lat="43.66576830967257" lon="11.86127701861905"><ele>745.0</ele><time>2026-04-25T13:44:04Z</time></trkpt><trkpt lat="43.66580597937245" lon="11.8611460433149"><ele>745.0</ele><time>2026-04-25T13:44:05Z</time></trkpt><trkpt lat="43.665840836870224" lon="11.8610525108985"><ele>745.0</ele><time>2026-04-25T13:44:06Z</time></trkpt><trkpt lat="43.66588004733328" lon="11.860951165168048"><ele>745.0</ele><time>2026-04-25T13:44:07Z</time></trkpt><trkpt lat="43.66588644417898" lon="11.860854863986196"><ele>745.0</ele><time>2026-04-25T13:44:08Z</time></trkpt><trkpt lat="43.66588259480873" lon="11.860737056675857"><ele>745.0</ele><time>2026-04-25T13:44:10Z</time></trkpt><trkpt lat="43.665985750291696" lon="11.860773340755262"><ele>745.0</ele><time>2026-04-25T13:44:12Z</time></trkpt><trkpt lat="43.66605621772754" lon="11.86076421226367"><ele>743.0</ele><time>2026-04-25T13:44:13Z</time></trkpt><trkpt lat="43.66614737006749" lon="11.860680191719931"><ele>741.0</ele><time>2026-04-25T13:44:15Z</time></trkpt><trkpt lat="43.66621265050333" lon="11.860572675903686"><ele>739.0</ele><time>2026-04-25T13:44:17Z</time></trkpt><trkpt lat="43.66628110889991" lon="11.860471641571243"><ele>737.0</ele><time>2026-04-25T13:44:20Z</time></trkpt><trkpt lat="43.666322735940426" lon="11.860404146749755"><ele>735.0</ele><time>2026-04-25T13:44:21Z</time></trkpt><trkpt lat="43.66640209838948" lon="11.860322305367752"><ele>735.0</ele><time>2026-04-25T13:44:22Z</time></trkpt><trkpt lat="43.666449132959464" lon="11.86026346788428"><ele>735.0</ele><time>2026-04-25T13:44:23Z</time></trkpt><trkpt lat="43.66652346233767" lon="11.860258988203526"><ele>735.0</ele><time>2026-04-25T13:44:26Z</time></trkpt><trkpt lat="43.666594845477576" lon="11.860294905764281"><ele>735.0</ele><time>2026-04-25T13:44:28Z</time></trkpt><trkpt lat="43.6666320533268" lon="11.860175048274508"><ele>735.0</ele><time>2026-04-25T13:44:31Z</time></trkpt><trkpt lat="43.666673501927136" lon="11.859942860284903"><ele>735.5</ele><time>2026-04-25T13:44:33Z</time></trkpt><trkpt lat="43.66669316333205" lon="11.859845043387674"><ele>736.0</ele><time>2026-04-25T13:44:34Z</time></trkpt><trkpt lat="43.666721359629925" lon="11.8597548441239"><ele>736.5</ele><time>2026-04-25T13:44:35Z</time></trkpt><trkpt lat="43.66676029774263" lon="11.859667500959139"><ele>737.0</ele><time>2026-04-25T13:44:36Z</time></trkpt><trkpt lat="43.66679860511678" lon="11.859573373858405"><ele>737.5</ele><time>2026-04-25T13:44:38Z</time></trkpt><trkpt lat="43.66682432849724" lon="11.859463189264392"><ele>738.0</ele><time>2026-04-25T13:44:42Z</time></trkpt><trkpt lat="43.66690440825448" lon="11.85940824556643"><ele>735.4</ele><time>2026-04-25T13:44:45Z</time></trkpt><trkpt lat="43.66701550479549" lon="11.85933609708352"><ele>732.8</ele><time>2026-04-25T13:44:47Z</time></trkpt><trkpt lat="43.66708093527959" lon="11.859246057133138"><ele>730.2</ele><time>2026-04-25T13:44:49Z</time></trkpt><trkpt lat="43.66714815163929" lon="11.859198136192113"><ele>727.6</ele><time>2026-04-25T13:45:20Z</time></trkpt><trkpt lat="43.667227702059456" lon="11.859137224514766"><ele>725.0</ele><time>2026-04-25T13:45:22Z</time></trkpt><trkpt lat="43.66715480203312" lon="11.859188316717523"><ele>724.1666666666666</ele><time>2026-04-25T13:45:54Z</time></trkpt><trkpt lat="43.667087957885265" lon="11.859293803527553"><ele>723.3333333333333</ele><time>2026-04-25T13:46:05Z</time></trkpt><trkpt lat="43.66700411328533" lon="11.859369462779322"><ele>722.5</ele><time>2026-04-25T13:46:07Z</time></trkpt><trkpt lat="43.6669350921453" lon="11.859394199042738"><ele>721.6666666666666</ele><time>2026-04-25T13:46:09Z</time></trkpt><trkpt lat="43.666871858537554" lon="11.859457730093995"><ele>720.8333333333334</ele><time>2026-04-25T13:46:12Z</time></trkpt><trkpt lat="43.66683265004663" lon="11.859540078602773"><ele>720.0</ele><time>2026-04-25T13:46:14Z</time></trkpt><trkpt lat="43.666797762426285" lon="11.859616811731053"><ele>722.5</ele><time>2026-04-25T13:46:18Z</time></trkpt><trkpt lat="43.66676541463733" lon="11.859731833475784"><ele>725.0</ele><time>2026-04-25T13:46:20Z</time></trkpt><trkpt lat="43.6667146170845" lon="11.859788765684701"><ele>727.5</ele><time>2026-04-25T13:46:22Z</time></trkpt><trkpt lat="43.666677895167055" lon="11.859897831925203"><ele>730.0</ele><time>2026-04-25T13:46:25Z</time></trkpt><trkpt lat="43.6666465160161" lon="11.860007898532727"><ele>732.5</ele><time>2026-04-25T13:46:27Z</time></trkpt><trkpt lat="43.66663091346558" lon="11.860112017580768"><ele>735.0</ele><time>2026-04-25T13:46:28Z</time></trkpt><trkpt lat="43.666603422776426" lon="11.860213307768436"><ele>735.0</ele><time>2026-04-25T13:46:30Z</time></trkpt><trkpt lat="43.666540685938486" lon="11.860234361904054"><ele>735.0</ele><time>2026-04-25T13:46:33Z</time></trkpt><trkpt lat="43.66644170272612" lon="11.860183539312835"><ele>735.0</ele><time>2026-04-25T13:46:35Z</time></trkpt><trkpt lat="43.66633789222619" lon="11.860162334315092"><ele>735.0</ele><time>2026-04-25T13:46:37Z</time></trkpt><trkpt lat="43.666272184124644" lon="11.860197571912906"><ele>735.0</ele><time>2026-04-25T13:46:38Z</time></trkpt><trkpt lat="43.66620433200115" lon="11.860270592319909"><ele>735.0</ele><time>2026-04-25T13:46:39Z</time></trkpt><trkpt lat="43.66612296992252" lon="11.86036535721095"><ele>738.0</ele><time>2026-04-25T13:46:40Z</time></trkpt><trkpt lat="43.666059829904825" lon="11.86039463445481"><ele>741.0</ele><time>2026-04-25T13:46:41Z</time></trkpt><trkpt lat="43.665982055683585" lon="11.86040687441031"><ele>744.0</ele><time>2026-04-25T13:46:42Z</time></trkpt><trkpt lat="43.66590747198111" lon="11.860425976099922"><ele>747.0</ele><time>2026-04-25T13:46:43Z</time></trkpt><trkpt lat="43.66582618635403" lon="11.860489442226362"><ele>750.0</ele><time>2026-04-25T13:46:45Z</time></trkpt><trkpt lat="43.66579802279967" lon="11.86059336617067"><ele>753.0</ele><time>2026-04-25T13:46:47Z</time></trkpt><trkpt lat="43.66581079843818" lon="11.860682684796156"><ele>753.0</ele><time>2026-04-25T13:46:48Z</time></trkpt><trkpt lat="43.6658418429603" lon="11.860785589552489"><ele>753.0</ele><time>2026-04-25T13:46:49Z</time></trkpt><trkpt lat="43.66587319671763" lon="11.860881199518243"><ele>753.0</ele><time>2026-04-25T13:46:50Z</time></trkpt><trkpt lat="43.6658697079076" lon="11.861016127203442"><ele>753.0</ele><time>2026-04-25T13:46:52Z</time></trkpt><trkpt lat="43.665836430751476" lon="11.861120849701965"><ele>753.0</ele><time>2026-04-25T13:46:54Z</time></trkpt><trkpt lat="43.665800489592826" lon="11.861209545750397"><ele>753.0</ele><time>2026-04-25T13:46:57Z</time></trkpt><trkpt lat="43.66574840609302" lon="11.861348031927674"><ele>751.6666666666666</ele><time>2026-04-25T13:46:58Z</time></trkpt><trkpt lat="43.66569408211588" lon="11.861464181503212"><ele>750.3333333333334</ele><time>2026-04-25T13:46:59Z</time></trkpt><trkpt lat="43.66573510743941" lon="11.861581157322513"><ele>749.0</ele><time>2026-04-25T13:47:01Z</time></trkpt><trkpt lat="43.66580722825966" lon="11.861638296658812"><ele>747.6666666666667</ele><time>2026-04-25T13:47:02Z</time></trkpt><trkpt lat="43.665869057597604" lon="11.861693127588541"><ele>746.3333333333334</ele><time>2026-04-25T13:47:03Z</time></trkpt><trkpt lat="43.665916218116195" lon="11.8617810429359"><ele>745.0</ele><time>2026-04-25T13:47:04Z</time></trkpt><trkpt lat="43.665929123970926" lon="11.861880372928065"><ele>742.8</ele><time>2026-04-25T13:47:05Z</time></trkpt><trkpt lat="43.665924207227924" lon="11.86201707840115"><ele>740.6</ele><time>2026-04-25T13:47:06Z</time></trkpt><trkpt lat="43.665918867148484" lon="11.862133155901875"><ele>738.4000000000001</ele><time>2026-04-25T13:47:07Z</time></trkpt><trkpt lat="43.66592820406801" lon="11.862224525282976"><ele>736.2</ele><time>2026-04-25T13:47:08Z</time></trkpt><trkpt lat="43.666070649409" lon="11.862198822065412"><ele>734.0</ele><time>2026-04-25T13:47:10Z</time></trkpt><trkpt lat="43.66614120920113" lon="11.862078281977645"><ele>732.4000000000001</ele><time>2026-04-25T13:47:11Z</time></trkpt><trkpt lat="43.66619839244439" lon="11.86200258322361"><ele>730.8</ele><time>2026-04-25T13:47:12Z</time></trkpt><trkpt lat="43.66627042898513" lon="11.862038959688077"><ele>729.2</ele><time>2026-04-25T13:47:14Z</time></trkpt><trkpt lat="43.666278234177774" lon="11.862163276899539"><ele>727.5999999999999</ele><time>2026-04-25T13:47:15Z</time></trkpt><trkpt lat="43.66629640140524" lon="11.862394768913727"><ele>726.0</ele><time>2026-04-25T13:47:16Z</time></trkpt><trkpt lat="43.66629890140189" lon="11.862547560252542"><ele>727.1666666666666</ele><time>2026-04-25T13:47:17Z</time></trkpt><trkpt lat="43.66628905505854" lon="11.86266094946957"><ele>728.3333333333334</ele><time>2026-04-25T13:47:18Z</time></trkpt><trkpt lat="43.666286351482306" lon="11.862784748762577"><ele>729.5</ele><time>2026-04-25T13:47:19Z</time></trkpt><trkpt lat="43.66628630005306" lon="11.862914533255639"><ele>730.6666666666667</ele><time>2026-04-25T13:47:20Z</time></trkpt><trkpt lat="43.66630621469757" lon="11.863012348708642"><ele>731.8333333333334</ele><time>2026-04-25T13:47:21Z</time></trkpt><trkpt lat="43.66636190647903" lon="11.863072862878493"><ele>733.0</ele><time>2026-04-25T13:47:22Z</time></trkpt><trkpt lat="43.66644569766752" lon="11.863123883936943"><ele>733.0</ele><time>2026-04-25T13:47:24Z</time></trkpt><trkpt lat="43.666431665896816" lon="11.863032507655577"><ele>733.0</ele><time>2026-04-25T13:47:30Z</time></trkpt><trkpt lat="43.66639729807039" lon="11.8628247895441"><ele>733.0</ele><time>2026-04-25T13:47:33Z</time></trkpt><trkpt lat="43.66642702383514" lon="11.862706576177498"><ele>733.0</ele><time>2026-04-25T13:47:34Z</time></trkpt><trkpt lat="43.666486516598134" lon="11.86262270499248"><ele>733.0</ele><time>2026-04-25T13:47:35Z</time></trkpt><trkpt lat="43.666569672093694" lon="11.86256258848969"><ele>731.5999999999999</ele><time>2026-04-25T13:47:36Z</time></trkpt><trkpt lat="43.666663389625754" lon="11.86251717862237"><ele>730.1999999999999</ele><time>2026-04-25T13:47:37Z</time></trkpt><trkpt lat="43.66675792218704" lon="11.862480820024631"><ele>728.8</ele><time>2026-04-25T13:47:38Z</time></trkpt><trkpt lat="43.666847419843535" lon="11.862443216264873"><ele>727.4</ele><time>2026-04-25T13:47:39Z</time></trkpt><trkpt lat="43.6669283139561" lon="11.862405096867338"><ele>726.0</ele><time>2026-04-25T13:47:40Z</time></trkpt><trkpt lat="43.667008494974176" lon="11.862367275301875"><ele>724.0</ele><time>2026-04-25T13:47:41Z</time></trkpt><trkpt lat="43.66708286430184" lon="11.86233079316292"><ele>722.0</ele><time>2026-04-25T13:47:42Z</time></trkpt><trkpt lat="43.66716395966746" lon="11.862228405569965"><ele>720.0</ele><time>2026-04-25T13:47:44Z</time></trkpt><trkpt lat="43.66725575498016" lon="11.86219967181102"><ele>718.0</ele><time>2026-04-25T13:47:46Z</time></trkpt><trkpt lat="43.667349866940555" lon="11.862179337914927"><ele>716.0</ele><time>2026-04-25T13:47:47Z</time></trkpt><trkpt lat="43.667455865059324" lon="11.862171282595648"><ele>716.0</ele><time>2026-04-25T13:47:48Z</time></trkpt><trkpt lat="43.66756517124696" lon="11.862143956659763"><ele>716.0</ele><time>2026-04-25T13:47:49Z</time></trkpt><trkpt lat="43.66767295484534" lon="11.862115453284261"><ele>716.0</ele><time>2026-04-25T13:47:50Z</time></trkpt><trkpt lat="43.66776650527284" lon="11.86209251858813"><ele>716.0</ele><time>2026-04-25T13:47:51Z</time></trkpt><trkpt lat="43.66784941178037" lon="11.862082706912917"><ele>716.0</ele><time>2026-04-25T13:47:52Z</time></trkpt><trkpt lat="43.6679280307387" lon="11.862065861904812"><ele>713.8</ele><time>2026-04-25T13:47:53Z</time></trkpt><trkpt lat="43.66801633072078" lon="11.86202164739132"><ele>711.5999999999999</ele><time>2026-04-25T13:47:54Z</time></trkpt><trkpt lat="43.66811948570326" lon="11.86197394783015"><ele>709.4</ele><time>2026-04-25T13:47:55Z</time></trkpt><trkpt lat="43.668207670983385" lon="11.861952540012343"><ele>707.2</ele><time>2026-04-25T13:47:56Z</time></trkpt><trkpt lat="43.668323524852475" lon="11.861987885718028"><ele>705.0</ele><time>2026-04-25T13:47:59Z</time></trkpt><trkpt lat="43.66839706741716" lon="11.86200229888721"><ele>705.0</ele><time>2026-04-25T13:48:00Z</time></trkpt><trkpt lat="43.66848488606742" lon="11.862041104013352"><ele>705.0</ele><time>2026-04-25T13:48:01Z</time></trkpt><trkpt lat="43.66855327841266" lon="11.86208362390997"><ele>705.0</ele><time>2026-04-25T13:48:02Z</time></trkpt><trkpt lat="43.668599490285814" lon="11.862155333306795"><ele>705.0</ele><time>2026-04-25T13:48:03Z</time></trkpt><trkpt lat="43.66864306166922" lon="11.86224540393642"><ele>705.0</ele><time>2026-04-25T13:48:04Z</time></trkpt><trkpt lat="43.66869135627225" lon="11.862309679628119"><ele>705.0</ele><time>2026-04-25T13:48:05Z</time></trkpt><trkpt lat="43.668798287821765" lon="11.86232418435126"><ele>702.4</ele><time>2026-04-25T13:48:07Z</time></trkpt><trkpt lat="43.66886809656778" lon="11.862414442310122"><ele>699.8</ele><time>2026-04-25T13:48:08Z</time></trkpt><trkpt lat="43.668947803196744" lon="11.862505649691991"><ele>697.2</ele><time>2026-04-25T13:48:09Z</time></trkpt><trkpt lat="43.669025122520395" lon="11.8625088528729"><ele>694.6</ele><time>2026-04-25T13:48:10Z</time></trkpt><trkpt lat="43.66908710915295" lon="11.862488528834387"><ele>692.0</ele><time>2026-04-25T13:48:11Z</time></trkpt><trkpt lat="43.66919506383002" lon="11.862354779427859"><ele>692.0</ele><time>2026-04-25T13:48:13Z</time></trkpt><trkpt lat="43.669264417651455" lon="11.862198640476608"><ele>692.0</ele><time>2026-04-25T13:48:14Z</time></trkpt><trkpt lat="43.66936473983261" lon="11.862043521721644"><ele>692.0</ele><time>2026-04-25T13:48:15Z</time></trkpt><trkpt lat="43.669440626280455" lon="11.861966670146717"><ele>692.0</ele><time>2026-04-25T13:48:16Z</time></trkpt><trkpt lat="43.66950567554134" lon="11.86192613152663"><ele>692.0</ele><time>2026-04-25T13:48:17Z</time></trkpt><trkpt lat="43.66957585780598" lon="11.86190584897046"><ele>688.1666666666666</ele><time>2026-04-25T13:48:18Z</time></trkpt><trkpt lat="43.66964406487243" lon="11.861894879487414"><ele>684.3333333333333</ele><time>2026-04-25T13:48:19Z</time></trkpt><trkpt lat="43.66973314764298" lon="11.861938760664712"><ele>680.5</ele><time>2026-04-25T13:48:21Z</time></trkpt><trkpt lat="43.66980305190421" lon="11.861938960699637"><ele>676.6666666666666</ele><time>2026-04-25T13:48:22Z</time></trkpt><trkpt lat="43.66988832187951" lon="11.861955993334922"><ele>672.8333333333334</ele><time>2026-04-25T13:48:23Z</time></trkpt><trkpt lat="43.66994646907575" lon="11.862011447517345"><ele>669.0</ele><time>2026-04-25T13:48:24Z</time></trkpt><trkpt lat="43.670016359267095" lon="11.861996700010442"><ele>669.0</ele><time>2026-04-25T13:48:26Z</time></trkpt><trkpt lat="43.67005610201566" lon="11.861784686965338"><ele>669.0</ele><time>2026-04-25T13:48:28Z</time></trkpt><trkpt lat="43.67007722876265" lon="11.861646188711324"><ele>669.0</ele><time>2026-04-25T13:48:29Z</time></trkpt><trkpt lat="43.670070505432705" lon="11.861522986409653"><ele>669.0</ele><time>2026-04-25T13:48:30Z</time></trkpt><trkpt lat="43.67004692333293" lon="11.861410363410082"><ele>669.0</ele><time>2026-04-25T13:48:31Z</time></trkpt><trkpt lat="43.67003482811229" lon="11.861316068979361"><ele>668.4000000000001</ele><time>2026-04-25T13:48:32Z</time></trkpt><trkpt lat="43.66999813366817" lon="11.861196363926942"><ele>667.8</ele><time>2026-04-25T13:48:33Z</time></trkpt><trkpt lat="43.669978065366294" lon="11.861054205549664"><ele>667.2</ele><time>2026-04-25T13:48:34Z</time></trkpt><trkpt lat="43.669958250427705" lon="11.860947505431568"><ele>666.5999999999999</ele><time>2026-04-25T13:48:35Z</time></trkpt><trkpt lat="43.66990568417888" lon="11.860783615370952"><ele>666.0</ele><time>2026-04-25T13:48:37Z</time></trkpt><trkpt lat="43.669942372066416" lon="11.86060974914793"><ele>664.4</ele><time>2026-04-25T13:48:39Z</time></trkpt><trkpt lat="43.66992208799219" lon="11.860482626293383"><ele>662.8</ele><time>2026-04-25T13:48:41Z</time></trkpt><trkpt lat="43.669814902972774" lon="11.860390791364425"><ele>661.1999999999999</ele><time>2026-04-25T13:48:43Z</time></trkpt><trkpt lat="43.66978053860039" lon="11.860278557315254"><ele>659.5999999999999</ele><time>2026-04-25T13:48:44Z</time></trkpt><trkpt lat="43.66976219267648" lon="11.860170045338846"><ele>658.0</ele><time>2026-04-25T13:48:45Z</time></trkpt><trkpt lat="43.66969689777594" lon="11.860110002394547"><ele>657.0</ele><time>2026-04-25T13:48:48Z</time></trkpt><trkpt lat="43.66954515572966" lon="11.860099401490327"><ele>656.0</ele><time>2026-04-25T13:48:51Z</time></trkpt><trkpt lat="43.6694387931337" lon="11.86004597962645"><ele>655.0</ele><time>2026-04-25T13:48:52Z</time></trkpt><trkpt lat="43.66936738773957" lon="11.859984772159294"><ele>654.0</ele><time>2026-04-25T13:48:53Z</time></trkpt><trkpt lat="43.66933077205255" lon="11.859911293063622"><ele>653.0</ele><time>2026-04-25T13:49:01Z</time></trkpt><trkpt lat="43.66937081000185" lon="11.859842702643348"><ele>653.0</ele><time>2026-04-25T13:49:08Z</time></trkpt><trkpt lat="43.66943201711895" lon="11.859776548889627"><ele>653.0</ele><time>2026-04-25T13:49:10Z</time></trkpt><trkpt lat="43.66943283524595" lon="11.859665411075"><ele>653.0</ele><time>2026-04-25T13:49:12Z</time></trkpt><trkpt lat="43.66944613740163" lon="11.85956146780644"><ele>653.0</ele><time>2026-04-25T13:49:13Z</time></trkpt><trkpt lat="43.66949635506935" lon="11.85947656176407"><ele>653.0</ele><time>2026-04-25T13:49:14Z</time></trkpt><trkpt lat="43.66959691807215" lon="11.859441028372446"><ele>653.0</ele><time>2026-04-25T13:49:16Z</time></trkpt><trkpt lat="43.66965774746138" lon="11.859477706786889"><ele>653.0</ele><time>2026-04-25T13:49:19Z</time></trkpt><trkpt lat="43.66971544430772" lon="11.859406702347583"><ele>653.0</ele><time>2026-04-25T13:49:21Z</time></trkpt><trkpt lat="43.66984474435228" lon="11.859152990717247"><ele>653.0</ele><time>2026-04-25T13:49:24Z</time></trkpt><trkpt lat="43.66989119428789" lon="11.859085678732601"><ele>653.0</ele><time>2026-04-25T13:49:25Z</time></trkpt><trkpt lat="43.66996231958928" lon="11.859105511267826"><ele>653.0</ele><time>2026-04-25T13:49:42Z</time></trkpt><trkpt lat="43.670072001066806" lon="11.859025611766517"><ele>652.0</ele><time>2026-04-25T13:49:44Z</time></trkpt><trkpt lat="43.670177699608914" lon="11.858990581401283"><ele>652.0</ele><time>2026-04-25T13:49:45Z</time></trkpt><trkpt lat="43.67026500285052" lon="11.858979854976562"><ele>652.0</ele><time>2026-04-25T13:49:46Z</time></trkpt></trkseg></trk></gpx>